<?xml version="1.0" encoding="UTF-8" standalone="no" ?>
<gpx xmlns="http://www.topografix.com/GPX/1/1" xmlns:xsi="http://www.w3.org/2001/XMLSchema-instance" xsi:schemaLocation="http://www.topografix.com/GPX/1/1 http://www.topografix.com/GPX/1/1/gpx.xsd" version="1.1" creator="VisuGPX - https://www.visugpx.com">
  <metadata>
    <name>ormes</name>
    <desc><![CDATA[boucle ormes-chanteau]]></desc>
  </metadata>
  <trk>
    <name><![CDATA[ormes]]></name>
    <trkseg>
      <trkpt lat="47.94346" lon="1.81581">
        <ele>120.997</ele>
        <time>2011-11-13T08:06:26Z</time>
      </trkpt>
      <trkpt lat="47.94362" lon="1.81583">
        <ele>120.911</ele>
        <time>2011-11-13T08:06:30Z</time>
      </trkpt>
      <trkpt lat="47.94368" lon="1.81593">
        <ele>121.166</ele>
        <time>2011-11-13T08:06:35Z</time>
      </trkpt>
      <trkpt lat="47.9443" lon="1.81701">
        <ele>121.916</ele>
        <time>2011-11-13T08:06:54Z</time>
      </trkpt>
      <trkpt lat="47.94485" lon="1.81811">
        <ele>121.154</ele>
        <time>2011-11-13T08:07:13Z</time>
      </trkpt>
      <trkpt lat="47.94545" lon="1.81938">
        <ele>121.036</ele>
        <time>2011-11-13T08:07:36Z</time>
      </trkpt>
      <trkpt lat="47.94547" lon="1.81942">
        <ele>120.989</ele>
        <time>2011-11-13T08:07:37Z</time>
      </trkpt>
      <trkpt lat="47.94566" lon="1.81934">
        <ele>120.881</ele>
        <time>2011-11-13T08:07:41Z</time>
      </trkpt>
      <trkpt lat="47.94662" lon="1.8185">
        <ele>121.448</ele>
        <time>2011-11-13T08:08:05Z</time>
      </trkpt>
      <trkpt lat="47.94691" lon="1.81824">
        <ele>121.074</ele>
        <time>2011-11-13T08:08:13Z</time>
      </trkpt>
      <trkpt lat="47.94724" lon="1.81877">
        <ele>120.084</ele>
        <time>2011-11-13T08:08:23Z</time>
      </trkpt>
      <trkpt lat="47.94739" lon="1.81904">
        <ele>119.498</ele>
        <time>2011-11-13T08:08:29Z</time>
      </trkpt>
      <trkpt lat="47.94751" lon="1.81905">
        <ele>119.361</ele>
        <time>2011-11-13T08:08:33Z</time>
      </trkpt>
      <trkpt lat="47.94818" lon="1.81847">
        <ele>118.891</ele>
        <time>2011-11-13T08:08:51Z</time>
      </trkpt>
      <trkpt lat="47.94911" lon="1.81766">
        <ele>117.879</ele>
        <time>2011-11-13T08:09:14Z</time>
      </trkpt>
      <trkpt lat="47.94989" lon="1.81699">
        <ele>118.299</ele>
        <time>2011-11-13T08:09:35Z</time>
      </trkpt>
      <trkpt lat="47.95049" lon="1.81647">
        <ele>118.272</ele>
        <time>2011-11-13T08:09:52Z</time>
      </trkpt>
      <trkpt lat="47.95087" lon="1.81641">
        <ele>118.303</ele>
        <time>2011-11-13T08:10:05Z</time>
      </trkpt>
      <trkpt lat="47.95132" lon="1.81771">
        <ele>118.301</ele>
        <time>2011-11-13T08:10:29Z</time>
      </trkpt>
      <trkpt lat="47.95169" lon="1.81886">
        <ele>118.107</ele>
        <time>2011-11-13T08:10:49Z</time>
      </trkpt>
      <trkpt lat="47.95214" lon="1.81978">
        <ele>119.218</ele>
        <time>2011-11-13T08:11:09Z</time>
      </trkpt>
      <trkpt lat="47.95261" lon="1.82076">
        <ele>120.952</ele>
        <time>2011-11-13T08:11:31Z</time>
      </trkpt>
      <trkpt lat="47.95293" lon="1.82163">
        <ele>121.307</ele>
        <time>2011-11-13T08:11:50Z</time>
      </trkpt>
      <trkpt lat="47.95329" lon="1.82268">
        <ele>122.056</ele>
        <time>2011-11-13T08:12:12Z</time>
      </trkpt>
      <trkpt lat="47.95375" lon="1.82408">
        <ele>122.955</ele>
        <time>2011-11-13T08:12:40Z</time>
      </trkpt>
      <trkpt lat="47.9542" lon="1.82546">
        <ele>121.758</ele>
        <time>2011-11-13T08:13:05Z</time>
      </trkpt>
      <trkpt lat="47.95456" lon="1.82655">
        <ele>122.613</ele>
        <time>2011-11-13T08:13:28Z</time>
      </trkpt>
      <trkpt lat="47.95467" lon="1.82688">
        <ele>121.777</ele>
        <time>2011-11-13T08:13:42Z</time>
      </trkpt>
      <trkpt lat="47.95468" lon="1.82699">
        <ele>122.121</ele>
        <time>2011-11-13T08:13:47Z</time>
      </trkpt>
      <trkpt lat="47.95485" lon="1.82698">
        <ele>121.925</ele>
        <time>2011-11-13T08:13:51Z</time>
      </trkpt>
      <trkpt lat="47.9556" lon="1.82659">
        <ele>121.12</ele>
        <time>2011-11-13T08:14:10Z</time>
      </trkpt>
      <trkpt lat="47.95607" lon="1.82643">
        <ele>122.54</ele>
        <time>2011-11-13T08:14:26Z</time>
      </trkpt>
      <trkpt lat="47.95608" lon="1.82644">
        <ele>122.689</ele>
        <time>2011-11-13T08:14:27Z</time>
      </trkpt>
      <trkpt lat="47.95654" lon="1.82601">
        <ele>123.07</ele>
        <time>2011-11-13T08:14:41Z</time>
      </trkpt>
      <trkpt lat="47.95736" lon="1.82549">
        <ele>122.33</ele>
        <time>2011-11-13T08:15:01Z</time>
      </trkpt>
      <trkpt lat="47.95829" lon="1.82479">
        <ele>120.341</ele>
        <time>2011-11-13T08:15:20Z</time>
      </trkpt>
      <trkpt lat="47.95899" lon="1.82421">
        <ele>119.819</ele>
        <time>2011-11-13T08:15:36Z</time>
      </trkpt>
      <trkpt lat="47.95979" lon="1.82359">
        <ele>123.004</ele>
        <time>2011-11-13T08:15:55Z</time>
      </trkpt>
      <trkpt lat="47.96089" lon="1.82264">
        <ele>122.682</ele>
        <time>2011-11-13T08:16:21Z</time>
      </trkpt>
      <trkpt lat="47.9617" lon="1.82189">
        <ele>121.395</ele>
        <time>2011-11-13T08:16:40Z</time>
      </trkpt>
      <trkpt lat="47.96277" lon="1.82091">
        <ele>123.07</ele>
        <time>2011-11-13T08:17:05Z</time>
      </trkpt>
      <trkpt lat="47.96381" lon="1.82">
        <ele>123.889</ele>
        <time>2011-11-13T08:17:29Z</time>
      </trkpt>
      <trkpt lat="47.96485" lon="1.81927">
        <ele>122.645</ele>
        <time>2011-11-13T08:17:51Z</time>
      </trkpt>
      <trkpt lat="47.96573" lon="1.81864">
        <ele>123.493</ele>
        <time>2011-11-13T08:18:10Z</time>
      </trkpt>
      <trkpt lat="47.96657" lon="1.81805">
        <ele>123.663</ele>
        <time>2011-11-13T08:18:29Z</time>
      </trkpt>
      <trkpt lat="47.96675" lon="1.81793">
        <ele>122.755</ele>
        <time>2011-11-13T08:18:33Z</time>
      </trkpt>
      <trkpt lat="47.96688" lon="1.81784">
        <ele>122.762</ele>
        <time>2011-11-13T08:18:38Z</time>
      </trkpt>
      <trkpt lat="47.96692" lon="1.81781">
        <ele>122.513</ele>
        <time>2011-11-13T08:18:40Z</time>
      </trkpt>
      <trkpt lat="47.96724" lon="1.81758">
        <ele>122.775</ele>
        <time>2011-11-13T08:18:49Z</time>
      </trkpt>
      <trkpt lat="47.96755" lon="1.81736">
        <ele>122.863</ele>
        <time>2011-11-13T08:18:55Z</time>
      </trkpt>
      <trkpt lat="47.96801" lon="1.81704">
        <ele>123.477</ele>
        <time>2011-11-13T08:19:05Z</time>
      </trkpt>
      <trkpt lat="47.9683" lon="1.81682">
        <ele>123.903</ele>
        <time>2011-11-13T08:19:12Z</time>
      </trkpt>
      <trkpt lat="47.96863" lon="1.81659">
        <ele>124.677</ele>
        <time>2011-11-13T08:19:17Z</time>
      </trkpt>
      <trkpt lat="47.96892" lon="1.81638">
        <ele>124.417</ele>
        <time>2011-11-13T08:19:23Z</time>
      </trkpt>
      <trkpt lat="47.96918" lon="1.81619">
        <ele>124.279</ele>
        <time>2011-11-13T08:19:30Z</time>
      </trkpt>
      <trkpt lat="47.96956" lon="1.81591">
        <ele>124.53</ele>
        <time>2011-11-13T08:19:39Z</time>
      </trkpt>
      <trkpt lat="47.97001" lon="1.81558">
        <ele>124.363</ele>
        <time>2011-11-13T08:19:49Z</time>
      </trkpt>
      <trkpt lat="47.97048" lon="1.81526">
        <ele>124.185</ele>
        <time>2011-11-13T08:20:00Z</time>
      </trkpt>
      <trkpt lat="47.97136" lon="1.81465">
        <ele>122.941</ele>
        <time>2011-11-13T08:20:20Z</time>
      </trkpt>
      <trkpt lat="47.97221" lon="1.81404">
        <ele>121.628</ele>
        <time>2011-11-13T08:20:40Z</time>
      </trkpt>
      <trkpt lat="47.97245" lon="1.81386">
        <ele>121.509</ele>
        <time>2011-11-13T08:20:46Z</time>
      </trkpt>
      <trkpt lat="47.97274" lon="1.81366">
        <ele>120.809</ele>
        <time>2011-11-13T08:20:54Z</time>
      </trkpt>
      <trkpt lat="47.97302" lon="1.81347">
        <ele>120.398</ele>
        <time>2011-11-13T08:21:02Z</time>
      </trkpt>
      <trkpt lat="47.9735" lon="1.81309">
        <ele>120.748</ele>
        <time>2011-11-13T08:21:14Z</time>
      </trkpt>
      <trkpt lat="47.97354" lon="1.8127">
        <ele>120.442</ele>
        <time>2011-11-13T08:21:24Z</time>
      </trkpt>
      <trkpt lat="47.97344" lon="1.8121">
        <ele>120.981</ele>
        <time>2011-11-13T08:21:38Z</time>
      </trkpt>
      <trkpt lat="47.97364" lon="1.81186">
        <ele>121.507</ele>
        <time>2011-11-13T08:21:45Z</time>
      </trkpt>
      <trkpt lat="47.97393" lon="1.81181">
        <ele>121.127</ele>
        <time>2011-11-13T08:21:52Z</time>
      </trkpt>
      <trkpt lat="47.97491" lon="1.81162">
        <ele>119.232</ele>
        <time>2011-11-13T08:22:14Z</time>
      </trkpt>
      <trkpt lat="47.9751" lon="1.81159">
        <ele>118.428</ele>
        <time>2011-11-13T08:22:28Z</time>
      </trkpt>
      <trkpt lat="47.9751" lon="1.81159">
        <ele>118.678</ele>
        <time>2011-11-13T08:22:56Z</time>
      </trkpt>
      <trkpt lat="47.9751" lon="1.81159">
        <ele>117.272</ele>
        <time>2011-11-13T08:27:10Z</time>
      </trkpt>
      <trkpt lat="47.97525" lon="1.81155">
        <ele>117.351</ele>
        <time>2011-11-13T08:30:48Z</time>
      </trkpt>
      <trkpt lat="47.97597" lon="1.81141">
        <ele>117.514</ele>
        <time>2011-11-13T08:31:08Z</time>
      </trkpt>
      <trkpt lat="47.9766" lon="1.81135">
        <ele>118.458</ele>
        <time>2011-11-13T08:31:27Z</time>
      </trkpt>
      <trkpt lat="47.97661" lon="1.81135">
        <ele>119.169</ele>
        <time>2011-11-13T08:31:31Z</time>
      </trkpt>
      <trkpt lat="47.97704" lon="1.81253">
        <ele>119.02</ele>
        <time>2011-11-13T08:31:51Z</time>
      </trkpt>
      <trkpt lat="47.97738" lon="1.81344">
        <ele>119.477</ele>
        <time>2011-11-13T08:32:09Z</time>
      </trkpt>
      <trkpt lat="47.97788" lon="1.81478">
        <ele>120.519</ele>
        <time>2011-11-13T08:32:36Z</time>
      </trkpt>
      <trkpt lat="47.97812" lon="1.81581">
        <ele>120.498</ele>
        <time>2011-11-13T08:32:55Z</time>
      </trkpt>
      <trkpt lat="47.97844" lon="1.81693">
        <ele>120.687</ele>
        <time>2011-11-13T08:33:15Z</time>
      </trkpt>
      <trkpt lat="47.97884" lon="1.81767">
        <ele>120.511</ele>
        <time>2011-11-13T08:33:31Z</time>
      </trkpt>
      <trkpt lat="47.97954" lon="1.81856">
        <ele>120.182</ele>
        <time>2011-11-13T08:33:53Z</time>
      </trkpt>
      <trkpt lat="47.98036" lon="1.81953">
        <ele>119.634</ele>
        <time>2011-11-13T08:34:15Z</time>
      </trkpt>
      <trkpt lat="47.98132" lon="1.82125">
        <ele>118.853</ele>
        <time>2011-11-13T08:34:44Z</time>
      </trkpt>
      <trkpt lat="47.98141" lon="1.82144">
        <ele>118.702</ele>
        <time>2011-11-13T08:34:47Z</time>
      </trkpt>
      <trkpt lat="47.98146" lon="1.82181">
        <ele>118.704</ele>
        <time>2011-11-13T08:34:52Z</time>
      </trkpt>
      <trkpt lat="47.98153" lon="1.82408">
        <ele>118.483</ele>
        <time>2011-11-13T08:35:21Z</time>
      </trkpt>
      <trkpt lat="47.98183" lon="1.82653">
        <ele>119.923</ele>
        <time>2011-11-13T08:35:54Z</time>
      </trkpt>
      <trkpt lat="47.98227" lon="1.82829">
        <ele>118.623</ele>
        <time>2011-11-13T08:36:17Z</time>
      </trkpt>
      <trkpt lat="47.98296" lon="1.83092">
        <ele>115.846</ele>
        <time>2011-11-13T08:36:48Z</time>
      </trkpt>
      <trkpt lat="47.98324" lon="1.83156">
        <ele>116.205</ele>
        <time>2011-11-13T08:36:58Z</time>
      </trkpt>
      <trkpt lat="47.98324" lon="1.83218">
        <ele>115.892</ele>
        <time>2011-11-13T08:37:04Z</time>
      </trkpt>
      <trkpt lat="47.98319" lon="1.83249">
        <ele>115.563</ele>
        <time>2011-11-13T08:37:08Z</time>
      </trkpt>
      <trkpt lat="47.98321" lon="1.83287">
        <ele>116.826</ele>
        <time>2011-11-13T08:37:13Z</time>
      </trkpt>
      <trkpt lat="47.98326" lon="1.83419">
        <ele>118.404</ele>
        <time>2011-11-13T08:37:33Z</time>
      </trkpt>
      <trkpt lat="47.98324" lon="1.83545">
        <ele>120.116</ele>
        <time>2011-11-13T08:37:49Z</time>
      </trkpt>
      <trkpt lat="47.98327" lon="1.83627">
        <ele>121.147</ele>
        <time>2011-11-13T08:38:00Z</time>
      </trkpt>
      <trkpt lat="47.98364" lon="1.83767">
        <ele>120.927</ele>
        <time>2011-11-13T08:38:19Z</time>
      </trkpt>
      <trkpt lat="47.98385" lon="1.83886">
        <ele>120.259</ele>
        <time>2011-11-13T08:38:35Z</time>
      </trkpt>
      <trkpt lat="47.98379" lon="1.83912">
        <ele>119.732</ele>
        <time>2011-11-13T08:38:41Z</time>
      </trkpt>
      <trkpt lat="47.983" lon="1.83968">
        <ele>118.709</ele>
        <time>2011-11-13T08:38:57Z</time>
      </trkpt>
      <trkpt lat="47.9829" lon="1.84015">
        <ele>118.698</ele>
        <time>2011-11-13T08:39:04Z</time>
      </trkpt>
      <trkpt lat="47.98342" lon="1.84173">
        <ele>117.475</ele>
        <time>2011-11-13T08:39:25Z</time>
      </trkpt>
      <trkpt lat="47.98427" lon="1.84328">
        <ele>117.532</ele>
        <time>2011-11-13T08:39:49Z</time>
      </trkpt>
      <trkpt lat="47.98455" lon="1.84398">
        <ele>116.439</ele>
        <time>2011-11-13T08:39:59Z</time>
      </trkpt>
      <trkpt lat="47.98469" lon="1.84528">
        <ele>116.641</ele>
        <time>2011-11-13T08:40:15Z</time>
      </trkpt>
      <trkpt lat="47.98472" lon="1.84683">
        <ele>119.548</ele>
        <time>2011-11-13T08:40:34Z</time>
      </trkpt>
      <trkpt lat="47.98456" lon="1.84831">
        <ele>119.226</ele>
        <time>2011-11-13T08:40:52Z</time>
      </trkpt>
      <trkpt lat="47.98495" lon="1.84957">
        <ele>119.739</ele>
        <time>2011-11-13T08:41:09Z</time>
      </trkpt>
      <trkpt lat="47.98571" lon="1.85151">
        <ele>121.334</ele>
        <time>2011-11-13T08:41:37Z</time>
      </trkpt>
      <trkpt lat="47.98666" lon="1.85343">
        <ele>121.872</ele>
        <time>2011-11-13T08:42:06Z</time>
      </trkpt>
      <trkpt lat="47.98691" lon="1.85492">
        <ele>121.37</ele>
        <time>2011-11-13T08:42:24Z</time>
      </trkpt>
      <trkpt lat="47.98674" lon="1.85643">
        <ele>120.572</ele>
        <time>2011-11-13T08:42:42Z</time>
      </trkpt>
      <trkpt lat="47.98635" lon="1.85842">
        <ele>122.161</ele>
        <time>2011-11-13T08:43:06Z</time>
      </trkpt>
      <trkpt lat="47.98603" lon="1.8597">
        <ele>119.101</ele>
        <time>2011-11-13T08:43:21Z</time>
      </trkpt>
      <trkpt lat="47.98524" lon="1.8616">
        <ele>116.838</ele>
        <time>2011-11-13T08:43:46Z</time>
      </trkpt>
      <trkpt lat="47.98497" lon="1.86258">
        <ele>116.018</ele>
        <time>2011-11-13T08:44:01Z</time>
      </trkpt>
      <trkpt lat="47.98502" lon="1.86208">
        <ele>115.712</ele>
        <time>2011-11-13T08:44:05Z</time>
      </trkpt>
      <trkpt lat="47.98481" lon="1.86325">
        <ele>115.387</ele>
        <time>2011-11-13T08:44:18Z</time>
      </trkpt>
      <trkpt lat="47.98529" lon="1.86486">
        <ele>115.333</ele>
        <time>2011-11-13T08:44:37Z</time>
      </trkpt>
      <trkpt lat="47.98539" lon="1.86651">
        <ele>115.348</ele>
        <time>2011-11-13T08:45:02Z</time>
      </trkpt>
      <trkpt lat="47.9855" lon="1.86841">
        <ele>114.86</ele>
        <time>2011-11-13T08:45:31Z</time>
      </trkpt>
      <trkpt lat="47.98562" lon="1.86972">
        <ele>115.428</ele>
        <time>2011-11-13T08:45:53Z</time>
      </trkpt>
      <trkpt lat="47.98564" lon="1.87075">
        <ele>114.702</ele>
        <time>2011-11-13T08:46:08Z</time>
      </trkpt>
      <trkpt lat="47.98563" lon="1.87224">
        <ele>114.816</ele>
        <time>2011-11-13T08:46:30Z</time>
      </trkpt>
      <trkpt lat="47.9857" lon="1.87376">
        <ele>114.951</ele>
        <time>2011-11-13T08:46:52Z</time>
      </trkpt>
      <trkpt lat="47.98615" lon="1.87489">
        <ele>114.916</ele>
        <time>2011-11-13T08:47:11Z</time>
      </trkpt>
      <trkpt lat="47.98656" lon="1.87561">
        <ele>114.29</ele>
        <time>2011-11-13T08:47:27Z</time>
      </trkpt>
      <trkpt lat="47.98724" lon="1.8768">
        <ele>114.671</ele>
        <time>2011-11-13T08:47:49Z</time>
      </trkpt>
      <trkpt lat="47.988" lon="1.87814">
        <ele>114.718</ele>
        <time>2011-11-13T08:48:13Z</time>
      </trkpt>
      <trkpt lat="47.98858" lon="1.87911">
        <ele>115.066</ele>
        <time>2011-11-13T08:48:35Z</time>
      </trkpt>
      <trkpt lat="47.98918" lon="1.87979">
        <ele>114.728</ele>
        <time>2011-11-13T08:48:51Z</time>
      </trkpt>
      <trkpt lat="47.98929" lon="1.87993">
        <ele>114.016</ele>
        <time>2011-11-13T08:48:55Z</time>
      </trkpt>
      <trkpt lat="47.98942" lon="1.88017">
        <ele>114.507</ele>
        <time>2011-11-13T08:49:00Z</time>
      </trkpt>
      <trkpt lat="47.98982" lon="1.88144">
        <ele>114.805</ele>
        <time>2011-11-13T08:49:20Z</time>
      </trkpt>
      <trkpt lat="47.9899" lon="1.8817">
        <ele>114.921</ele>
        <time>2011-11-13T08:49:25Z</time>
      </trkpt>
      <trkpt lat="47.98996" lon="1.8818">
        <ele>114.22</ele>
        <time>2011-11-13T08:49:29Z</time>
      </trkpt>
      <trkpt lat="47.99014" lon="1.8825">
        <ele>114.715</ele>
        <time>2011-11-13T08:49:38Z</time>
      </trkpt>
      <trkpt lat="47.99017" lon="1.88387">
        <ele>113.434</ele>
        <time>2011-11-13T08:49:57Z</time>
      </trkpt>
      <trkpt lat="47.99019" lon="1.88414">
        <ele>113.533</ele>
        <time>2011-11-13T08:50:01Z</time>
      </trkpt>
      <trkpt lat="47.99006" lon="1.8844">
        <ele>113.879</ele>
        <time>2011-11-13T08:50:06Z</time>
      </trkpt>
      <trkpt lat="47.99" lon="1.88486">
        <ele>114.253</ele>
        <time>2011-11-13T08:50:12Z</time>
      </trkpt>
      <trkpt lat="47.99008" lon="1.88664">
        <ele>114.155</ele>
        <time>2011-11-13T08:50:34Z</time>
      </trkpt>
      <trkpt lat="47.99011" lon="1.88742">
        <ele>114.155</ele>
        <time>2011-11-13T08:50:45Z</time>
      </trkpt>
      <trkpt lat="47.99018" lon="1.88804">
        <ele>113.794</ele>
        <time>2011-11-13T08:50:57Z</time>
      </trkpt>
      <trkpt lat="47.99019" lon="1.88808">
        <ele>113.791</ele>
        <time>2011-11-13T08:50:58Z</time>
      </trkpt>
      <trkpt lat="47.99036" lon="1.8891">
        <ele>114.112</ele>
        <time>2011-11-13T08:51:12Z</time>
      </trkpt>
      <trkpt lat="47.99045" lon="1.88997">
        <ele>114.222</ele>
        <time>2011-11-13T08:51:25Z</time>
      </trkpt>
      <trkpt lat="47.99056" lon="1.89053">
        <ele>114.438</ele>
        <time>2011-11-13T08:51:36Z</time>
      </trkpt>
      <trkpt lat="47.98955" lon="1.89053">
        <ele>114.448</ele>
        <time>2011-11-13T08:51:45Z</time>
      </trkpt>
      <trkpt lat="47.9895" lon="1.89043">
        <ele>114.634</ele>
        <time>2011-11-13T08:51:47Z</time>
      </trkpt>
      <trkpt lat="47.98934" lon="1.88958">
        <ele>115.457</ele>
        <time>2011-11-13T08:51:53Z</time>
      </trkpt>
      <trkpt lat="47.98835" lon="1.89047">
        <ele>115.804</ele>
        <time>2011-11-13T08:52:15Z</time>
      </trkpt>
      <trkpt lat="47.98779" lon="1.89056">
        <ele>115.977</ele>
        <time>2011-11-13T08:52:28Z</time>
      </trkpt>
      <trkpt lat="47.98731" lon="1.89074">
        <ele>116.376</ele>
        <time>2011-11-13T08:52:39Z</time>
      </trkpt>
      <trkpt lat="47.98718" lon="1.89079">
        <ele>117.129</ele>
        <time>2011-11-13T08:52:44Z</time>
      </trkpt>
      <trkpt lat="47.98731" lon="1.89268">
        <ele>115.955</ele>
        <time>2011-11-13T08:53:06Z</time>
      </trkpt>
      <trkpt lat="47.98745" lon="1.89447">
        <ele>115.638</ele>
        <time>2011-11-13T08:53:29Z</time>
      </trkpt>
      <trkpt lat="47.98762" lon="1.89637">
        <ele>115.43</ele>
        <time>2011-11-13T08:53:53Z</time>
      </trkpt>
      <trkpt lat="47.98774" lon="1.89775">
        <ele>115.536</ele>
        <time>2011-11-13T08:54:13Z</time>
      </trkpt>
      <trkpt lat="47.98779" lon="1.89801">
        <ele>115.216</ele>
        <time>2011-11-13T08:54:18Z</time>
      </trkpt>
      <trkpt lat="47.98785" lon="1.89839">
        <ele>115.42</ele>
        <time>2011-11-13T08:54:24Z</time>
      </trkpt>
      <trkpt lat="47.98793" lon="1.89893">
        <ele>115.098</ele>
        <time>2011-11-13T08:54:32Z</time>
      </trkpt>
      <trkpt lat="47.98794" lon="1.89899">
        <ele>115.1</ele>
        <time>2011-11-13T08:54:33Z</time>
      </trkpt>
      <trkpt lat="47.98802" lon="1.89943">
        <ele>115.136</ele>
        <time>2011-11-13T08:54:39Z</time>
      </trkpt>
      <trkpt lat="47.98804" lon="1.89957">
        <ele>114.833</ele>
        <time>2011-11-13T08:54:41Z</time>
      </trkpt>
      <trkpt lat="47.98806" lon="1.89973">
        <ele>114.982</ele>
        <time>2011-11-13T08:54:44Z</time>
      </trkpt>
      <trkpt lat="47.98811" lon="1.90005">
        <ele>115.161</ele>
        <time>2011-11-13T08:54:49Z</time>
      </trkpt>
      <trkpt lat="47.98816" lon="1.90033">
        <ele>115.313</ele>
        <time>2011-11-13T08:54:53Z</time>
      </trkpt>
      <trkpt lat="47.98825" lon="1.90089">
        <ele>115.407</ele>
        <time>2011-11-13T08:55:00Z</time>
      </trkpt>
      <trkpt lat="47.98827" lon="1.90103">
        <ele>115.925</ele>
        <time>2011-11-13T08:55:02Z</time>
      </trkpt>
      <trkpt lat="47.98833" lon="1.90151">
        <ele>116.338</ele>
        <time>2011-11-13T08:55:09Z</time>
      </trkpt>
      <trkpt lat="47.98849" lon="1.90287">
        <ele>116.145</ele>
        <time>2011-11-13T08:55:27Z</time>
      </trkpt>
      <trkpt lat="47.98863" lon="1.90417">
        <ele>117.411</ele>
        <time>2011-11-13T08:55:46Z</time>
      </trkpt>
      <trkpt lat="47.98871" lon="1.90484">
        <ele>117.712</ele>
        <time>2011-11-13T08:55:55Z</time>
      </trkpt>
      <trkpt lat="47.98877" lon="1.90533">
        <ele>118.051</ele>
        <time>2011-11-13T08:56:02Z</time>
      </trkpt>
      <trkpt lat="47.98884" lon="1.90582">
        <ele>118.038</ele>
        <time>2011-11-13T08:56:09Z</time>
      </trkpt>
      <trkpt lat="47.9889" lon="1.90662">
        <ele>119.01</ele>
        <time>2011-11-13T08:56:20Z</time>
      </trkpt>
      <trkpt lat="47.98887" lon="1.90679">
        <ele>119.066</ele>
        <time>2011-11-13T08:56:23Z</time>
      </trkpt>
      <trkpt lat="47.98881" lon="1.90703">
        <ele>118.745</ele>
        <time>2011-11-13T08:56:27Z</time>
      </trkpt>
      <trkpt lat="47.98872" lon="1.90736">
        <ele>118.136</ele>
        <time>2011-11-13T08:56:32Z</time>
      </trkpt>
      <trkpt lat="47.98864" lon="1.90765">
        <ele>117.982</ele>
        <time>2011-11-13T08:56:37Z</time>
      </trkpt>
      <trkpt lat="47.98848" lon="1.90826">
        <ele>118.187</ele>
        <time>2011-11-13T08:56:48Z</time>
      </trkpt>
      <trkpt lat="47.98824" lon="1.90915">
        <ele>117.855</ele>
        <time>2011-11-13T08:56:59Z</time>
      </trkpt>
      <trkpt lat="47.98807" lon="1.90968">
        <ele>117.991</ele>
        <time>2011-11-13T08:57:06Z</time>
      </trkpt>
      <trkpt lat="47.98791" lon="1.91024">
        <ele>117.657</ele>
        <time>2011-11-13T08:57:14Z</time>
      </trkpt>
      <trkpt lat="47.98781" lon="1.91074">
        <ele>117.905</ele>
        <time>2011-11-13T08:57:22Z</time>
      </trkpt>
      <trkpt lat="47.98742" lon="1.91103">
        <ele>118.061</ele>
        <time>2011-11-13T08:57:27Z</time>
      </trkpt>
      <trkpt lat="47.98733" lon="1.91095">
        <ele>117.88</ele>
        <time>2011-11-13T08:57:30Z</time>
      </trkpt>
      <trkpt lat="47.98694" lon="1.91061">
        <ele>118.093</ele>
        <time>2011-11-13T08:57:40Z</time>
      </trkpt>
      <trkpt lat="47.98667" lon="1.91039">
        <ele>117.978</ele>
        <time>2011-11-13T08:57:46Z</time>
      </trkpt>
      <trkpt lat="47.98648" lon="1.91025">
        <ele>117.485</ele>
        <time>2011-11-13T08:57:50Z</time>
      </trkpt>
      <trkpt lat="47.98541" lon="1.91036">
        <ele>116.871</ele>
        <time>2011-11-13T08:58:09Z</time>
      </trkpt>
      <trkpt lat="47.98442" lon="1.91039">
        <ele>118.076</ele>
        <time>2011-11-13T08:58:27Z</time>
      </trkpt>
      <trkpt lat="47.98408" lon="1.91039">
        <ele>118.105</ele>
        <time>2011-11-13T08:58:34Z</time>
      </trkpt>
      <trkpt lat="47.98393" lon="1.91039">
        <ele>117.906</ele>
        <time>2011-11-13T08:58:37Z</time>
      </trkpt>
      <trkpt lat="47.98362" lon="1.9104">
        <ele>117.595</ele>
        <time>2011-11-13T08:58:48Z</time>
      </trkpt>
      <trkpt lat="47.98354" lon="1.9104">
        <ele>118.592</ele>
        <time>2011-11-13T08:59:02Z</time>
      </trkpt>
      <trkpt lat="47.98305" lon="1.91036">
        <ele>119.127</ele>
        <time>2011-11-13T08:59:14Z</time>
      </trkpt>
      <trkpt lat="47.98272" lon="1.91037">
        <ele>119.661</ele>
        <time>2011-11-13T08:59:25Z</time>
      </trkpt>
      <trkpt lat="47.98249" lon="1.91081">
        <ele>119.342</ele>
        <time>2011-11-13T08:59:36Z</time>
      </trkpt>
      <trkpt lat="47.98242" lon="1.91098">
        <ele>120.382</ele>
        <time>2011-11-13T08:59:41Z</time>
      </trkpt>
      <trkpt lat="47.98227" lon="1.91139">
        <ele>119.906</ele>
        <time>2011-11-13T08:59:56Z</time>
      </trkpt>
      <trkpt lat="47.98224" lon="1.91147">
        <ele>119.774</ele>
        <time>2011-11-13T09:00:00Z</time>
      </trkpt>
      <trkpt lat="47.98222" lon="1.91152">
        <ele>119.942</ele>
        <time>2011-11-13T09:00:03Z</time>
      </trkpt>
      <trkpt lat="47.98216" lon="1.91166">
        <ele>120.261</ele>
        <time>2011-11-13T09:00:07Z</time>
      </trkpt>
      <trkpt lat="47.98194" lon="1.91221">
        <ele>120.879</ele>
        <time>2011-11-13T09:00:19Z</time>
      </trkpt>
      <trkpt lat="47.98177" lon="1.91233">
        <ele>121.276</ele>
        <time>2011-11-13T09:00:23Z</time>
      </trkpt>
      <trkpt lat="47.98123" lon="1.91234">
        <ele>121.126</ele>
        <time>2011-11-13T09:00:38Z</time>
      </trkpt>
      <trkpt lat="47.98074" lon="1.91235">
        <ele>121.562</ele>
        <time>2011-11-13T09:00:54Z</time>
      </trkpt>
      <trkpt lat="47.98005" lon="1.91233">
        <ele>122.113</ele>
        <time>2011-11-13T09:01:09Z</time>
      </trkpt>
      <trkpt lat="47.9794" lon="1.91275">
        <ele>121.437</ele>
        <time>2011-11-13T09:01:23Z</time>
      </trkpt>
      <trkpt lat="47.97936" lon="1.91278">
        <ele>121.373</ele>
        <time>2011-11-13T09:01:24Z</time>
      </trkpt>
      <trkpt lat="47.97915" lon="1.91294">
        <ele>121.232</ele>
        <time>2011-11-13T09:01:32Z</time>
      </trkpt>
      <trkpt lat="47.9791" lon="1.91297">
        <ele>121.305</ele>
        <time>2011-11-13T09:01:44Z</time>
      </trkpt>
      <trkpt lat="47.9791" lon="1.91297">
        <ele>121.408</ele>
        <time>2011-11-13T09:01:47Z</time>
      </trkpt>
      <trkpt lat="47.9791" lon="1.91297">
        <ele>121.332</ele>
        <time>2011-11-13T09:01:50Z</time>
      </trkpt>
      <trkpt lat="47.9791" lon="1.91297">
        <ele>121.053</ele>
        <time>2011-11-13T09:01:52Z</time>
      </trkpt>
      <trkpt lat="47.97896" lon="1.91308">
        <ele>121.347</ele>
        <time>2011-11-13T09:02:02Z</time>
      </trkpt>
      <trkpt lat="47.97892" lon="1.91311">
        <ele>121.487</ele>
        <time>2011-11-13T09:02:05Z</time>
      </trkpt>
      <trkpt lat="47.97888" lon="1.91313">
        <ele>121.105</ele>
        <time>2011-11-13T09:02:07Z</time>
      </trkpt>
      <trkpt lat="47.97888" lon="1.91313">
        <ele>121.202</ele>
        <time>2011-11-13T09:02:24Z</time>
      </trkpt>
      <trkpt lat="47.97888" lon="1.91313">
        <ele>121.092</ele>
        <time>2011-11-13T09:02:47Z</time>
      </trkpt>
      <trkpt lat="47.97896" lon="1.91355">
        <ele>121.386</ele>
        <time>2011-11-13T09:04:08Z</time>
      </trkpt>
      <trkpt lat="47.97935" lon="1.91463">
        <ele>121.211</ele>
        <time>2011-11-13T09:04:27Z</time>
      </trkpt>
      <trkpt lat="47.97989" lon="1.91613">
        <ele>119.945</ele>
        <time>2011-11-13T09:04:49Z</time>
      </trkpt>
      <trkpt lat="47.98005" lon="1.91656">
        <ele>120.11</ele>
        <time>2011-11-13T09:04:55Z</time>
      </trkpt>
      <trkpt lat="47.98025" lon="1.91708">
        <ele>119.176</ele>
        <time>2011-11-13T09:05:02Z</time>
      </trkpt>
      <trkpt lat="47.98056" lon="1.91792">
        <ele>119.66</ele>
        <time>2011-11-13T09:05:13Z</time>
      </trkpt>
      <trkpt lat="47.98095" lon="1.91899">
        <ele>118.975</ele>
        <time>2011-11-13T09:05:27Z</time>
      </trkpt>
      <trkpt lat="47.98103" lon="1.91921">
        <ele>118.722</ele>
        <time>2011-11-13T09:05:30Z</time>
      </trkpt>
      <trkpt lat="47.98114" lon="1.91952">
        <ele>118.404</ele>
        <time>2011-11-13T09:05:34Z</time>
      </trkpt>
      <trkpt lat="47.98129" lon="1.91992">
        <ele>118.361</ele>
        <time>2011-11-13T09:05:40Z</time>
      </trkpt>
      <trkpt lat="47.98169" lon="1.92102">
        <ele>118.692</ele>
        <time>2011-11-13T09:05:55Z</time>
      </trkpt>
      <trkpt lat="47.98199" lon="1.92184">
        <ele>118.707</ele>
        <time>2011-11-13T09:06:07Z</time>
      </trkpt>
      <trkpt lat="47.9821" lon="1.92216">
        <ele>119.048</ele>
        <time>2011-11-13T09:06:12Z</time>
      </trkpt>
      <trkpt lat="47.98265" lon="1.92366">
        <ele>118.62</ele>
        <time>2011-11-13T09:06:31Z</time>
      </trkpt>
      <trkpt lat="47.98305" lon="1.92475">
        <ele>117.545</ele>
        <time>2011-11-13T09:06:46Z</time>
      </trkpt>
      <trkpt lat="47.98318" lon="1.92512">
        <ele>116.885</ele>
        <time>2011-11-13T09:06:55Z</time>
      </trkpt>
      <trkpt lat="47.98354" lon="1.92512">
        <ele>117.91</ele>
        <time>2011-11-13T09:07:04Z</time>
      </trkpt>
      <trkpt lat="47.98385" lon="1.92525">
        <ele>117.446</ele>
        <time>2011-11-13T09:07:13Z</time>
      </trkpt>
      <trkpt lat="47.98397" lon="1.9253">
        <ele>117.921</ele>
        <time>2011-11-13T09:07:16Z</time>
      </trkpt>
      <trkpt lat="47.98435" lon="1.92547">
        <ele>118.585</ele>
        <time>2011-11-13T09:07:26Z</time>
      </trkpt>
      <trkpt lat="47.98473" lon="1.92565">
        <ele>117.592</ele>
        <time>2011-11-13T09:07:34Z</time>
      </trkpt>
      <trkpt lat="47.9848" lon="1.92568">
        <ele>117.604</ele>
        <time>2011-11-13T09:07:35Z</time>
      </trkpt>
      <trkpt lat="47.98504" lon="1.9258">
        <ele>117.86</ele>
        <time>2011-11-13T09:07:41Z</time>
      </trkpt>
      <trkpt lat="47.98526" lon="1.92591">
        <ele>118.256</ele>
        <time>2011-11-13T09:07:46Z</time>
      </trkpt>
      <trkpt lat="47.98579" lon="1.92616">
        <ele>118.253</ele>
        <time>2011-11-13T09:07:57Z</time>
      </trkpt>
      <trkpt lat="47.98619" lon="1.92634">
        <ele>118.063</ele>
        <time>2011-11-13T09:08:04Z</time>
      </trkpt>
      <trkpt lat="47.98658" lon="1.92652">
        <ele>117.791</ele>
        <time>2011-11-13T09:08:12Z</time>
      </trkpt>
      <trkpt lat="47.98662" lon="1.92653">
        <ele>117.204</ele>
        <time>2011-11-13T09:08:13Z</time>
      </trkpt>
      <trkpt lat="47.98671" lon="1.92657">
        <ele>116.501</ele>
        <time>2011-11-13T09:08:15Z</time>
      </trkpt>
      <trkpt lat="47.98718" lon="1.92679">
        <ele>117.424</ele>
        <time>2011-11-13T09:08:24Z</time>
      </trkpt>
      <trkpt lat="47.98741" lon="1.9269">
        <ele>117.352</ele>
        <time>2011-11-13T09:08:28Z</time>
      </trkpt>
      <trkpt lat="47.98779" lon="1.92706">
        <ele>117.794</ele>
        <time>2011-11-13T09:08:34Z</time>
      </trkpt>
      <trkpt lat="47.98841" lon="1.92733">
        <ele>118.174</ele>
        <time>2011-11-13T09:08:43Z</time>
      </trkpt>
      <trkpt lat="47.98867" lon="1.92744">
        <ele>118.047</ele>
        <time>2011-11-13T09:08:48Z</time>
      </trkpt>
      <trkpt lat="47.98885" lon="1.92752">
        <ele>118.129</ele>
        <time>2011-11-13T09:08:53Z</time>
      </trkpt>
      <trkpt lat="47.98915" lon="1.92767">
        <ele>118.51</ele>
        <time>2011-11-13T09:08:58Z</time>
      </trkpt>
      <trkpt lat="47.98952" lon="1.92785">
        <ele>118.333</ele>
        <time>2011-11-13T09:09:05Z</time>
      </trkpt>
      <trkpt lat="47.98977" lon="1.92797">
        <ele>117.934</ele>
        <time>2011-11-13T09:09:09Z</time>
      </trkpt>
      <trkpt lat="47.99023" lon="1.92816">
        <ele>117.418</ele>
        <time>2011-11-13T09:09:17Z</time>
      </trkpt>
      <trkpt lat="47.99035" lon="1.92821">
        <ele>117.936</ele>
        <time>2011-11-13T09:09:19Z</time>
      </trkpt>
      <trkpt lat="47.99044" lon="1.92825">
        <ele>118.023</ele>
        <time>2011-11-13T09:09:21Z</time>
      </trkpt>
      <trkpt lat="47.99072" lon="1.92838">
        <ele>118.09</ele>
        <time>2011-11-13T09:09:26Z</time>
      </trkpt>
      <trkpt lat="47.99111" lon="1.92856">
        <ele>117.928</ele>
        <time>2011-11-13T09:09:33Z</time>
      </trkpt>
      <trkpt lat="47.99159" lon="1.92876">
        <ele>118.161</ele>
        <time>2011-11-13T09:09:41Z</time>
      </trkpt>
      <trkpt lat="47.99165" lon="1.92879">
        <ele>118.325</ele>
        <time>2011-11-13T09:09:42Z</time>
      </trkpt>
      <trkpt lat="47.99223" lon="1.92904">
        <ele>118.74</ele>
        <time>2011-11-13T09:09:52Z</time>
      </trkpt>
      <trkpt lat="47.99244" lon="1.92914">
        <ele>118.541</ele>
        <time>2011-11-13T09:09:55Z</time>
      </trkpt>
      <trkpt lat="47.99271" lon="1.92926">
        <ele>117.927</ele>
        <time>2011-11-13T09:10:00Z</time>
      </trkpt>
      <trkpt lat="47.99323" lon="1.92952">
        <ele>117.888</ele>
        <time>2011-11-13T09:10:09Z</time>
      </trkpt>
      <trkpt lat="47.99369" lon="1.92973">
        <ele>117.484</ele>
        <time>2011-11-13T09:10:17Z</time>
      </trkpt>
      <trkpt lat="47.99392" lon="1.92985">
        <ele>117.294</ele>
        <time>2011-11-13T09:10:22Z</time>
      </trkpt>
      <trkpt lat="47.99413" lon="1.92994">
        <ele>117.126</ele>
        <time>2011-11-13T09:10:26Z</time>
      </trkpt>
      <trkpt lat="47.99449" lon="1.93009">
        <ele>117.135</ele>
        <time>2011-11-13T09:10:32Z</time>
      </trkpt>
      <trkpt lat="47.99463" lon="1.93014">
        <ele>116.848</ele>
        <time>2011-11-13T09:10:35Z</time>
      </trkpt>
      <trkpt lat="47.99473" lon="1.93017">
        <ele>116.865</ele>
        <time>2011-11-13T09:10:37Z</time>
      </trkpt>
      <trkpt lat="47.99491" lon="1.93024">
        <ele>117.378</ele>
        <time>2011-11-13T09:10:41Z</time>
      </trkpt>
      <trkpt lat="47.99502" lon="1.93028">
        <ele>117.728</ele>
        <time>2011-11-13T09:10:44Z</time>
      </trkpt>
      <trkpt lat="47.99541" lon="1.93042">
        <ele>118.096</ele>
        <time>2011-11-13T09:10:54Z</time>
      </trkpt>
      <trkpt lat="47.99558" lon="1.93048">
        <ele>118.075</ele>
        <time>2011-11-13T09:10:59Z</time>
      </trkpt>
      <trkpt lat="47.99576" lon="1.93059">
        <ele>118.051</ele>
        <time>2011-11-13T09:11:04Z</time>
      </trkpt>
      <trkpt lat="47.99584" lon="1.93063">
        <ele>117.975</ele>
        <time>2011-11-13T09:11:12Z</time>
      </trkpt>
      <trkpt lat="47.99592" lon="1.93083">
        <ele>117.969</ele>
        <time>2011-11-13T09:11:16Z</time>
      </trkpt>
      <trkpt lat="47.99621" lon="1.93081">
        <ele>118.605</ele>
        <time>2011-11-13T09:11:25Z</time>
      </trkpt>
      <trkpt lat="47.99648" lon="1.93115">
        <ele>118.045</ele>
        <time>2011-11-13T09:11:36Z</time>
      </trkpt>
      <trkpt lat="47.99667" lon="1.93122">
        <ele>118.456</ele>
        <time>2011-11-13T09:11:51Z</time>
      </trkpt>
      <trkpt lat="47.99667" lon="1.93122">
        <ele>118.383</ele>
        <time>2011-11-13T09:12:05Z</time>
      </trkpt>
      <trkpt lat="47.99693" lon="1.93131">
        <ele>118.345</ele>
        <time>2011-11-13T09:12:21Z</time>
      </trkpt>
      <trkpt lat="47.99693" lon="1.93168">
        <ele>117.466</ele>
        <time>2011-11-13T09:12:29Z</time>
      </trkpt>
      <trkpt lat="47.99711" lon="1.93261">
        <ele>118.222</ele>
        <time>2011-11-13T09:12:41Z</time>
      </trkpt>
      <trkpt lat="47.99752" lon="1.93365">
        <ele>118.488</ele>
        <time>2011-11-13T09:12:57Z</time>
      </trkpt>
      <trkpt lat="47.99775" lon="1.9343">
        <ele>118.363</ele>
        <time>2011-11-13T09:13:06Z</time>
      </trkpt>
      <trkpt lat="47.99774" lon="1.93465">
        <ele>118.762</ele>
        <time>2011-11-13T09:13:11Z</time>
      </trkpt>
      <trkpt lat="47.99742" lon="1.93628">
        <ele>117.855</ele>
        <time>2011-11-13T09:13:34Z</time>
      </trkpt>
      <trkpt lat="47.9976" lon="1.93686">
        <ele>117.545</ele>
        <time>2011-11-13T09:13:45Z</time>
      </trkpt>
      <trkpt lat="47.99783" lon="1.93728">
        <ele>118.25</ele>
        <time>2011-11-13T09:13:56Z</time>
      </trkpt>
      <trkpt lat="47.99785" lon="1.93792">
        <ele>118.514</ele>
        <time>2011-11-13T09:14:12Z</time>
      </trkpt>
      <trkpt lat="47.99785" lon="1.93795">
        <ele>118.667</ele>
        <time>2011-11-13T09:14:13Z</time>
      </trkpt>
      <trkpt lat="47.99798" lon="1.93796">
        <ele>119.105</ele>
        <time>2011-11-13T09:14:17Z</time>
      </trkpt>
      <trkpt lat="47.99824" lon="1.93776">
        <ele>119.612</ele>
        <time>2011-11-13T09:14:31Z</time>
      </trkpt>
      <trkpt lat="47.9985" lon="1.93759">
        <ele>119.603</ele>
        <time>2011-11-13T09:14:45Z</time>
      </trkpt>
      <trkpt lat="47.99874" lon="1.9374">
        <ele>119.451</ele>
        <time>2011-11-13T09:14:55Z</time>
      </trkpt>
      <trkpt lat="47.99885" lon="1.93731">
        <ele>118.896</ele>
        <time>2011-11-13T09:14:59Z</time>
      </trkpt>
      <trkpt lat="47.99892" lon="1.93743">
        <ele>118.802</ele>
        <time>2011-11-13T09:15:04Z</time>
      </trkpt>
      <trkpt lat="47.99882" lon="1.93734">
        <ele>119.326</ele>
        <time>2011-11-13T09:15:06Z</time>
      </trkpt>
      <trkpt lat="47.99875" lon="1.9374">
        <ele>119.548</ele>
        <time>2011-11-13T09:15:09Z</time>
      </trkpt>
      <trkpt lat="47.99884" lon="1.93843">
        <ele>120.309</ele>
        <time>2011-11-13T09:15:20Z</time>
      </trkpt>
      <trkpt lat="47.99881" lon="1.93869">
        <ele>120.122</ele>
        <time>2011-11-13T09:15:26Z</time>
      </trkpt>
      <trkpt lat="47.99882" lon="1.93878">
        <ele>120.624</ele>
        <time>2011-11-13T09:15:29Z</time>
      </trkpt>
      <trkpt lat="47.99877" lon="1.93914">
        <ele>121.576</ele>
        <time>2011-11-13T09:15:37Z</time>
      </trkpt>
      <trkpt lat="47.99874" lon="1.93928">
        <ele>121.273</ele>
        <time>2011-11-13T09:15:41Z</time>
      </trkpt>
      <trkpt lat="47.99876" lon="1.93991">
        <ele>120.824</ele>
        <time>2011-11-13T09:15:51Z</time>
      </trkpt>
      <trkpt lat="47.99872" lon="1.9405">
        <ele>120.046</ele>
        <time>2011-11-13T09:16:00Z</time>
      </trkpt>
      <trkpt lat="47.9983" lon="1.94073">
        <ele>119.9</ele>
        <time>2011-11-13T09:16:05Z</time>
      </trkpt>
      <trkpt lat="47.99827" lon="1.94103">
        <ele>119.147</ele>
        <time>2011-11-13T09:16:09Z</time>
      </trkpt>
      <trkpt lat="47.99842" lon="1.94177">
        <ele>118.486</ele>
        <time>2011-11-13T09:16:20Z</time>
      </trkpt>
      <trkpt lat="47.99861" lon="1.94249">
        <ele>117.469</ele>
        <time>2011-11-13T09:16:29Z</time>
      </trkpt>
      <trkpt lat="47.99853" lon="1.94309">
        <ele>117.307</ele>
        <time>2011-11-13T09:16:39Z</time>
      </trkpt>
      <trkpt lat="47.99847" lon="1.94391">
        <ele>118.745</ele>
        <time>2011-11-13T09:16:49Z</time>
      </trkpt>
      <trkpt lat="47.9984" lon="1.9445">
        <ele>119.463</ele>
        <time>2011-11-13T09:16:59Z</time>
      </trkpt>
      <trkpt lat="47.99819" lon="1.94469">
        <ele>119.199</ele>
        <time>2011-11-13T09:17:06Z</time>
      </trkpt>
      <trkpt lat="47.99805" lon="1.94493">
        <ele>119.806</ele>
        <time>2011-11-13T09:17:15Z</time>
      </trkpt>
      <trkpt lat="47.99805" lon="1.94497">
        <ele>119.852</ele>
        <time>2011-11-13T09:17:17Z</time>
      </trkpt>
      <trkpt lat="47.9979" lon="1.94529">
        <ele>120.622</ele>
        <time>2011-11-13T09:17:28Z</time>
      </trkpt>
      <trkpt lat="47.99786" lon="1.94537">
        <ele>120.451</ele>
        <time>2011-11-13T09:17:43Z</time>
      </trkpt>
      <trkpt lat="47.99769" lon="1.94546">
        <ele>120.625</ele>
        <time>2011-11-13T09:18:12Z</time>
      </trkpt>
      <trkpt lat="47.99753" lon="1.94558">
        <ele>120.035</ele>
        <time>2011-11-13T09:18:18Z</time>
      </trkpt>
      <trkpt lat="47.99748" lon="1.9457">
        <ele>120.055</ele>
        <time>2011-11-13T09:18:21Z</time>
      </trkpt>
      <trkpt lat="47.99731" lon="1.94548">
        <ele>119.073</ele>
        <time>2011-11-13T09:18:28Z</time>
      </trkpt>
      <trkpt lat="47.99722" lon="1.94545">
        <ele>118.789</ele>
        <time>2011-11-13T09:18:34Z</time>
      </trkpt>
      <trkpt lat="47.99706" lon="1.94537">
        <ele>119.151</ele>
        <time>2011-11-13T09:18:43Z</time>
      </trkpt>
      <trkpt lat="47.997" lon="1.94534">
        <ele>119.216</ele>
        <time>2011-11-13T09:18:46Z</time>
      </trkpt>
      <trkpt lat="47.99666" lon="1.94626">
        <ele>120.026</ele>
        <time>2011-11-13T09:18:56Z</time>
      </trkpt>
      <trkpt lat="47.9965" lon="1.94673">
        <ele>120.06</ele>
        <time>2011-11-13T09:19:05Z</time>
      </trkpt>
      <trkpt lat="47.99643" lon="1.9469">
        <ele>120.216</ele>
        <time>2011-11-13T09:19:09Z</time>
      </trkpt>
      <trkpt lat="47.99616" lon="1.94767">
        <ele>119.842</ele>
        <time>2011-11-13T09:19:23Z</time>
      </trkpt>
      <trkpt lat="47.99594" lon="1.94829">
        <ele>119.811</ele>
        <time>2011-11-13T09:19:35Z</time>
      </trkpt>
      <trkpt lat="47.99578" lon="1.94872">
        <ele>120.058</ele>
        <time>2011-11-13T09:19:43Z</time>
      </trkpt>
      <trkpt lat="47.99562" lon="1.94918">
        <ele>119.969</ele>
        <time>2011-11-13T09:19:52Z</time>
      </trkpt>
      <trkpt lat="47.99541" lon="1.94975">
        <ele>120.134</ele>
        <time>2011-11-13T09:20:03Z</time>
      </trkpt>
      <trkpt lat="47.99524" lon="1.95023">
        <ele>119.893</ele>
        <time>2011-11-13T09:20:12Z</time>
      </trkpt>
      <trkpt lat="47.99508" lon="1.95068">
        <ele>119.786</ele>
        <time>2011-11-13T09:20:22Z</time>
      </trkpt>
      <trkpt lat="47.99497" lon="1.951">
        <ele>120.232</ele>
        <time>2011-11-13T09:20:30Z</time>
      </trkpt>
      <trkpt lat="47.99496" lon="1.95103">
        <ele>120.574</ele>
        <time>2011-11-13T09:20:32Z</time>
      </trkpt>
      <trkpt lat="47.99475" lon="1.95159">
        <ele>120.38</ele>
        <time>2011-11-13T09:20:43Z</time>
      </trkpt>
      <trkpt lat="47.99465" lon="1.95189">
        <ele>119.176</ele>
        <time>2011-11-13T09:20:54Z</time>
      </trkpt>
      <trkpt lat="47.99465" lon="1.95189">
        <ele>120.417</ele>
        <time>2011-11-13T09:20:59Z</time>
      </trkpt>
      <trkpt lat="47.99463" lon="1.95195">
        <ele>120.096</ele>
        <time>2011-11-13T09:21:08Z</time>
      </trkpt>
      <trkpt lat="47.99447" lon="1.95237">
        <ele>121.173</ele>
        <time>2011-11-13T09:21:20Z</time>
      </trkpt>
      <trkpt lat="47.99445" lon="1.95244">
        <ele>120.773</ele>
        <time>2011-11-13T09:21:25Z</time>
      </trkpt>
      <trkpt lat="47.99419" lon="1.9531">
        <ele>121.599</ele>
        <time>2011-11-13T09:21:40Z</time>
      </trkpt>
      <trkpt lat="47.99387" lon="1.954">
        <ele>121.766</ele>
        <time>2011-11-13T09:21:55Z</time>
      </trkpt>
      <trkpt lat="47.99385" lon="1.95406">
        <ele>121.765</ele>
        <time>2011-11-13T09:21:56Z</time>
      </trkpt>
      <trkpt lat="47.9937" lon="1.95447">
        <ele>121.477</ele>
        <time>2011-11-13T09:22:03Z</time>
      </trkpt>
      <trkpt lat="47.99333" lon="1.95552">
        <ele>122.173</ele>
        <time>2011-11-13T09:22:21Z</time>
      </trkpt>
      <trkpt lat="47.99297" lon="1.95653">
        <ele>122.698</ele>
        <time>2011-11-13T09:22:39Z</time>
      </trkpt>
      <trkpt lat="47.99296" lon="1.95657">
        <ele>122.695</ele>
        <time>2011-11-13T09:22:40Z</time>
      </trkpt>
      <trkpt lat="47.99336" lon="1.95676">
        <ele>122.535</ele>
        <time>2011-11-13T09:22:51Z</time>
      </trkpt>
      <trkpt lat="47.99346" lon="1.9568">
        <ele>122.549</ele>
        <time>2011-11-13T09:22:54Z</time>
      </trkpt>
      <trkpt lat="47.99345" lon="1.95702">
        <ele>122.626</ele>
        <time>2011-11-13T09:22:59Z</time>
      </trkpt>
      <trkpt lat="47.99326" lon="1.95801">
        <ele>122.824</ele>
        <time>2011-11-13T09:23:16Z</time>
      </trkpt>
      <trkpt lat="47.99305" lon="1.95903">
        <ele>122.414</ele>
        <time>2011-11-13T09:23:34Z</time>
      </trkpt>
      <trkpt lat="47.99278" lon="1.96033">
        <ele>123.044</ele>
        <time>2011-11-13T09:23:55Z</time>
      </trkpt>
      <trkpt lat="47.99273" lon="1.96058">
        <ele>122.283</ele>
        <time>2011-11-13T09:23:59Z</time>
      </trkpt>
      <trkpt lat="47.99247" lon="1.96189">
        <ele>122.966</ele>
        <time>2011-11-13T09:24:21Z</time>
      </trkpt>
      <trkpt lat="47.99231" lon="1.96292">
        <ele>123.556</ele>
        <time>2011-11-13T09:24:38Z</time>
      </trkpt>
      <trkpt lat="47.99219" lon="1.96428">
        <ele>123.537</ele>
        <time>2011-11-13T09:24:59Z</time>
      </trkpt>
      <trkpt lat="47.99208" lon="1.96543">
        <ele>123.562</ele>
        <time>2011-11-13T09:25:16Z</time>
      </trkpt>
      <trkpt lat="47.99206" lon="1.96569">
        <ele>123.728</ele>
        <time>2011-11-13T09:25:21Z</time>
      </trkpt>
      <trkpt lat="47.99206" lon="1.96569">
        <ele>123.656</ele>
        <time>2011-11-13T09:25:33Z</time>
      </trkpt>
      <trkpt lat="47.99206" lon="1.96569">
        <ele>123.303</ele>
        <time>2011-11-13T09:26:01Z</time>
      </trkpt>
      <trkpt lat="47.99206" lon="1.96569">
        <ele>123.537</ele>
        <time>2011-11-13T09:26:05Z</time>
      </trkpt>
      <trkpt lat="47.99172" lon="1.96628">
        <ele>123.657</ele>
        <time>2011-11-13T09:26:18Z</time>
      </trkpt>
      <trkpt lat="47.99128" lon="1.96687">
        <ele>124.336</ele>
        <time>2011-11-13T09:26:32Z</time>
      </trkpt>
      <trkpt lat="47.99113" lon="1.96706">
        <ele>124.405</ele>
        <time>2011-11-13T09:26:36Z</time>
      </trkpt>
      <trkpt lat="47.99098" lon="1.96725">
        <ele>124.761</ele>
        <time>2011-11-13T09:26:40Z</time>
      </trkpt>
      <trkpt lat="47.9906" lon="1.96777">
        <ele>125.021</ele>
        <time>2011-11-13T09:26:52Z</time>
      </trkpt>
      <trkpt lat="47.99025" lon="1.96826">
        <ele>125.666</ele>
        <time>2011-11-13T09:27:03Z</time>
      </trkpt>
      <trkpt lat="47.99022" lon="1.96829">
        <ele>125.665</ele>
        <time>2011-11-13T09:27:04Z</time>
      </trkpt>
      <trkpt lat="47.98987" lon="1.96876">
        <ele>127.101</ele>
        <time>2011-11-13T09:27:14Z</time>
      </trkpt>
      <trkpt lat="47.98953" lon="1.96927">
        <ele>126.621</ele>
        <time>2011-11-13T09:27:24Z</time>
      </trkpt>
      <trkpt lat="47.98915" lon="1.96995">
        <ele>125.68</ele>
        <time>2011-11-13T09:27:36Z</time>
      </trkpt>
      <trkpt lat="47.98904" lon="1.97013">
        <ele>125.619</ele>
        <time>2011-11-13T09:27:39Z</time>
      </trkpt>
      <trkpt lat="47.98887" lon="1.97039">
        <ele>125.344</ele>
        <time>2011-11-13T09:27:44Z</time>
      </trkpt>
      <trkpt lat="47.98872" lon="1.97059">
        <ele>125.37</ele>
        <time>2011-11-13T09:27:48Z</time>
      </trkpt>
      <trkpt lat="47.98772" lon="1.97118">
        <ele>125.643</ele>
        <time>2011-11-13T09:28:11Z</time>
      </trkpt>
      <trkpt lat="47.98684" lon="1.97171">
        <ele>125.223</ele>
        <time>2011-11-13T09:28:30Z</time>
      </trkpt>
      <trkpt lat="47.98671" lon="1.97179">
        <ele>125.09</ele>
        <time>2011-11-13T09:28:33Z</time>
      </trkpt>
      <trkpt lat="47.98604" lon="1.97218">
        <ele>123.971</ele>
        <time>2011-11-13T09:28:47Z</time>
      </trkpt>
      <trkpt lat="47.98564" lon="1.97239">
        <ele>123.717</ele>
        <time>2011-11-13T09:29:00Z</time>
      </trkpt>
      <trkpt lat="47.98563" lon="1.9724">
        <ele>123.698</ele>
        <time>2011-11-13T09:29:15Z</time>
      </trkpt>
      <trkpt lat="47.98563" lon="1.9724">
        <ele>124.021</ele>
        <time>2011-11-13T09:30:01Z</time>
      </trkpt>
      <trkpt lat="47.98539" lon="1.97264">
        <ele>124.405</ele>
        <time>2011-11-13T09:30:11Z</time>
      </trkpt>
      <trkpt lat="47.98467" lon="1.9734">
        <ele>124.415</ele>
        <time>2011-11-13T09:30:28Z</time>
      </trkpt>
      <trkpt lat="47.9838" lon="1.97433">
        <ele>124.356</ele>
        <time>2011-11-13T09:30:49Z</time>
      </trkpt>
      <trkpt lat="47.9834" lon="1.97476">
        <ele>124.193</ele>
        <time>2011-11-13T09:30:59Z</time>
      </trkpt>
      <trkpt lat="47.9831" lon="1.97508">
        <ele>124.063</ele>
        <time>2011-11-13T09:31:07Z</time>
      </trkpt>
      <trkpt lat="47.98247" lon="1.97573">
        <ele>123.635</ele>
        <time>2011-11-13T09:31:22Z</time>
      </trkpt>
      <trkpt lat="47.98202" lon="1.9762">
        <ele>124.948</ele>
        <time>2011-11-13T09:31:33Z</time>
      </trkpt>
      <trkpt lat="47.98181" lon="1.97642">
        <ele>126.783</ele>
        <time>2011-11-13T09:31:39Z</time>
      </trkpt>
      <trkpt lat="47.98174" lon="1.97649">
        <ele>127.411</ele>
        <time>2011-11-13T09:31:41Z</time>
      </trkpt>
      <trkpt lat="47.9813" lon="1.97694">
        <ele>127.94</ele>
        <time>2011-11-13T09:31:56Z</time>
      </trkpt>
      <trkpt lat="47.98128" lon="1.97697">
        <ele>128.146</ele>
        <time>2011-11-13T09:32:10Z</time>
      </trkpt>
      <trkpt lat="47.98104" lon="1.97722">
        <ele>127.911</ele>
        <time>2011-11-13T09:32:30Z</time>
      </trkpt>
      <trkpt lat="47.98079" lon="1.97749">
        <ele>127.827</ele>
        <time>2011-11-13T09:32:38Z</time>
      </trkpt>
      <trkpt lat="47.98045" lon="1.97784">
        <ele>127.774</ele>
        <time>2011-11-13T09:32:47Z</time>
      </trkpt>
      <trkpt lat="47.98029" lon="1.97801">
        <ele>127.664</ele>
        <time>2011-11-13T09:32:51Z</time>
      </trkpt>
      <trkpt lat="47.97972" lon="1.9786">
        <ele>127.984</ele>
        <time>2011-11-13T09:33:07Z</time>
      </trkpt>
      <trkpt lat="47.97937" lon="1.97897">
        <ele>128.908</ele>
        <time>2011-11-13T09:33:18Z</time>
      </trkpt>
      <trkpt lat="47.97914" lon="1.97921">
        <ele>129.797</ele>
        <time>2011-11-13T09:33:30Z</time>
      </trkpt>
      <trkpt lat="47.97883" lon="1.97955">
        <ele>130.637</ele>
        <time>2011-11-13T09:33:44Z</time>
      </trkpt>
      <trkpt lat="47.97832" lon="1.98011">
        <ele>130.838</ele>
        <time>2011-11-13T09:34:01Z</time>
      </trkpt>
      <trkpt lat="47.97773" lon="1.98074">
        <ele>130.8</ele>
        <time>2011-11-13T09:34:20Z</time>
      </trkpt>
      <trkpt lat="47.97735" lon="1.98116">
        <ele>131.743</ele>
        <time>2011-11-13T09:34:34Z</time>
      </trkpt>
      <trkpt lat="47.97717" lon="1.98136">
        <ele>131.801</ele>
        <time>2011-11-13T09:34:43Z</time>
      </trkpt>
      <trkpt lat="47.97683" lon="1.98135">
        <ele>131.737</ele>
        <time>2011-11-13T09:34:49Z</time>
      </trkpt>
      <trkpt lat="47.97666" lon="1.98134">
        <ele>130.933</ele>
        <time>2011-11-13T09:34:53Z</time>
      </trkpt>
      <trkpt lat="47.97645" lon="1.98135">
        <ele>130.452</ele>
        <time>2011-11-13T09:34:58Z</time>
      </trkpt>
      <trkpt lat="47.97627" lon="1.98136">
        <ele>129.928</ele>
        <time>2011-11-13T09:35:02Z</time>
      </trkpt>
      <trkpt lat="47.97611" lon="1.98137">
        <ele>129.836</ele>
        <time>2011-11-13T09:35:06Z</time>
      </trkpt>
      <trkpt lat="47.97569" lon="1.98138">
        <ele>129.189</ele>
        <time>2011-11-13T09:35:16Z</time>
      </trkpt>
      <trkpt lat="47.9751" lon="1.97993">
        <ele>128.562</ele>
        <time>2011-11-13T09:35:29Z</time>
      </trkpt>
      <trkpt lat="47.97498" lon="1.97978">
        <ele>128.948</ele>
        <time>2011-11-13T09:35:32Z</time>
      </trkpt>
      <trkpt lat="47.97488" lon="1.97964">
        <ele>128.932</ele>
        <time>2011-11-13T09:35:35Z</time>
      </trkpt>
      <trkpt lat="47.97444" lon="1.97925">
        <ele>127.254</ele>
        <time>2011-11-13T09:35:45Z</time>
      </trkpt>
      <trkpt lat="47.97435" lon="1.97916">
        <ele>127.424</ele>
        <time>2011-11-13T09:35:47Z</time>
      </trkpt>
      <trkpt lat="47.97376" lon="1.97852">
        <ele>126.051</ele>
        <time>2011-11-13T09:35:58Z</time>
      </trkpt>
      <trkpt lat="47.97338" lon="1.97803">
        <ele>125.401</ele>
        <time>2011-11-13T09:36:07Z</time>
      </trkpt>
      <trkpt lat="47.97314" lon="1.9777">
        <ele>125.424</ele>
        <time>2011-11-13T09:36:13Z</time>
      </trkpt>
      <trkpt lat="47.97275" lon="1.97725">
        <ele>125.098</ele>
        <time>2011-11-13T09:36:23Z</time>
      </trkpt>
      <trkpt lat="47.97228" lon="1.97665">
        <ele>125.452</ele>
        <time>2011-11-13T09:36:38Z</time>
      </trkpt>
      <trkpt lat="47.97169" lon="1.97587">
        <ele>125.824</ele>
        <time>2011-11-13T09:36:47Z</time>
      </trkpt>
      <trkpt lat="47.97169" lon="1.97587">
        <ele>125.86</ele>
        <time>2011-11-13T09:36:50Z</time>
      </trkpt>
      <trkpt lat="47.97136" lon="1.97524">
        <ele>127.557</ele>
        <time>2011-11-13T09:37:05Z</time>
      </trkpt>
      <trkpt lat="47.97085" lon="1.97423">
        <ele>128.969</ele>
        <time>2011-11-13T09:37:23Z</time>
      </trkpt>
      <trkpt lat="47.97052" lon="1.97359">
        <ele>129.522</ele>
        <time>2011-11-13T09:37:35Z</time>
      </trkpt>
      <trkpt lat="47.9701" lon="1.97279">
        <ele>129.293</ele>
        <time>2011-11-13T09:37:51Z</time>
      </trkpt>
      <trkpt lat="47.96971" lon="1.97225">
        <ele>128.616</ele>
        <time>2011-11-13T09:38:05Z</time>
      </trkpt>
      <trkpt lat="47.96966" lon="1.9722">
        <ele>128.391</ele>
        <time>2011-11-13T09:38:07Z</time>
      </trkpt>
      <trkpt lat="47.96946" lon="1.9724">
        <ele>128.554</ele>
        <time>2011-11-13T09:38:17Z</time>
      </trkpt>
      <trkpt lat="47.96925" lon="1.97278">
        <ele>128.967</ele>
        <time>2011-11-13T09:38:31Z</time>
      </trkpt>
      <trkpt lat="47.96883" lon="1.97347">
        <ele>128.529</ele>
        <time>2011-11-13T09:38:50Z</time>
      </trkpt>
      <trkpt lat="47.96839" lon="1.97412">
        <ele>128.111</ele>
        <time>2011-11-13T09:39:10Z</time>
      </trkpt>
      <trkpt lat="47.96792" lon="1.97459">
        <ele>127.924</ele>
        <time>2011-11-13T09:39:27Z</time>
      </trkpt>
      <trkpt lat="47.9673" lon="1.97512">
        <ele>127.377</ele>
        <time>2011-11-13T09:39:46Z</time>
      </trkpt>
      <trkpt lat="47.96693" lon="1.97537">
        <ele>126.561</ele>
        <time>2011-11-13T09:39:58Z</time>
      </trkpt>
      <trkpt lat="47.96686" lon="1.9752">
        <ele>126.513</ele>
        <time>2011-11-13T09:40:03Z</time>
      </trkpt>
      <trkpt lat="47.96676" lon="1.97502">
        <ele>125.868</ele>
        <time>2011-11-13T09:40:07Z</time>
      </trkpt>
      <trkpt lat="47.96663" lon="1.97466">
        <ele>125.904</ele>
        <time>2011-11-13T09:40:13Z</time>
      </trkpt>
      <trkpt lat="47.96663" lon="1.97466">
        <ele>124.483</ele>
        <time>2011-11-13T09:40:20Z</time>
      </trkpt>
      <trkpt lat="47.96619" lon="1.97515">
        <ele>123.939</ele>
        <time>2011-11-13T09:40:24Z</time>
      </trkpt>
      <trkpt lat="47.96512" lon="1.97476">
        <ele>123.449</ele>
        <time>2011-11-13T09:40:44Z</time>
      </trkpt>
      <trkpt lat="47.96409" lon="1.97456">
        <ele>123.841</ele>
        <time>2011-11-13T09:41:03Z</time>
      </trkpt>
      <trkpt lat="47.9632" lon="1.9748">
        <ele>123.881</ele>
        <time>2011-11-13T09:41:21Z</time>
      </trkpt>
      <trkpt lat="47.96197" lon="1.97513">
        <ele>120.697</ele>
        <time>2011-11-13T09:41:42Z</time>
      </trkpt>
      <trkpt lat="47.96139" lon="1.97534">
        <ele>120.361</ele>
        <time>2011-11-13T09:41:52Z</time>
      </trkpt>
      <trkpt lat="47.96083" lon="1.97547">
        <ele>119.669</ele>
        <time>2011-11-13T09:42:02Z</time>
      </trkpt>
      <trkpt lat="47.96067" lon="1.97554">
        <ele>119.53</ele>
        <time>2011-11-13T09:42:06Z</time>
      </trkpt>
      <trkpt lat="47.96036" lon="1.97585">
        <ele>118.321</ele>
        <time>2011-11-13T09:42:10Z</time>
      </trkpt>
      <trkpt lat="47.95994" lon="1.97617">
        <ele>118.072</ele>
        <time>2011-11-13T09:42:17Z</time>
      </trkpt>
      <trkpt lat="47.95958" lon="1.97627">
        <ele>116.266</ele>
        <time>2011-11-13T09:42:23Z</time>
      </trkpt>
      <trkpt lat="47.95929" lon="1.97634">
        <ele>115.691</ele>
        <time>2011-11-13T09:42:28Z</time>
      </trkpt>
      <trkpt lat="47.95918" lon="1.97637">
        <ele>115.382</ele>
        <time>2011-11-13T09:42:30Z</time>
      </trkpt>
      <trkpt lat="47.95869" lon="1.97627">
        <ele>115.343</ele>
        <time>2011-11-13T09:42:38Z</time>
      </trkpt>
      <trkpt lat="47.95863" lon="1.97623">
        <ele>115.412</ele>
        <time>2011-11-13T09:42:39Z</time>
      </trkpt>
      <trkpt lat="47.95845" lon="1.97608">
        <ele>115.535</ele>
        <time>2011-11-13T09:42:42Z</time>
      </trkpt>
      <trkpt lat="47.95793" lon="1.97597">
        <ele>116.216</ele>
        <time>2011-11-13T09:42:50Z</time>
      </trkpt>
      <trkpt lat="47.95786" lon="1.976">
        <ele>116.147</ele>
        <time>2011-11-13T09:42:51Z</time>
      </trkpt>
      <trkpt lat="47.9571" lon="1.9764">
        <ele>116.932</ele>
        <time>2011-11-13T09:43:04Z</time>
      </trkpt>
      <trkpt lat="47.95674" lon="1.97649">
        <ele>118.356</ele>
        <time>2011-11-13T09:43:14Z</time>
      </trkpt>
      <trkpt lat="47.95659" lon="1.97618">
        <ele>117.922</ele>
        <time>2011-11-13T09:43:25Z</time>
      </trkpt>
      <trkpt lat="47.95659" lon="1.97617">
        <ele>117.747</ele>
        <time>2011-11-13T09:43:34Z</time>
      </trkpt>
      <trkpt lat="47.95665" lon="1.97651">
        <ele>117.694</ele>
        <time>2011-11-13T09:43:43Z</time>
      </trkpt>
      <trkpt lat="47.95659" lon="1.97584">
        <ele>118.124</ele>
        <time>2011-11-13T09:43:49Z</time>
      </trkpt>
      <trkpt lat="47.95659" lon="1.97494">
        <ele>118.153</ele>
        <time>2011-11-13T09:44:02Z</time>
      </trkpt>
      <trkpt lat="47.95659" lon="1.97467">
        <ele>118.254</ele>
        <time>2011-11-13T09:44:06Z</time>
      </trkpt>
      <trkpt lat="47.95659" lon="1.97414">
        <ele>118.555</ele>
        <time>2011-11-13T09:44:14Z</time>
      </trkpt>
      <trkpt lat="47.95659" lon="1.97395">
        <ele>118.716</ele>
        <time>2011-11-13T09:44:17Z</time>
      </trkpt>
      <trkpt lat="47.95659" lon="1.97319">
        <ele>118.883</ele>
        <time>2011-11-13T09:44:28Z</time>
      </trkpt>
      <trkpt lat="47.95659" lon="1.97287">
        <ele>118.541</ele>
        <time>2011-11-13T09:44:33Z</time>
      </trkpt>
      <trkpt lat="47.95659" lon="1.97246">
        <ele>118.449</ele>
        <time>2011-11-13T09:44:39Z</time>
      </trkpt>
      <trkpt lat="47.95659" lon="1.97234">
        <ele>118.262</ele>
        <time>2011-11-13T09:44:41Z</time>
      </trkpt>
      <trkpt lat="47.95639" lon="1.97174">
        <ele>118.817</ele>
        <time>2011-11-13T09:44:52Z</time>
      </trkpt>
      <trkpt lat="47.95602" lon="1.97095">
        <ele>119.492</ele>
        <time>2011-11-13T09:45:08Z</time>
      </trkpt>
      <trkpt lat="47.95567" lon="1.97019">
        <ele>119.621</ele>
        <time>2011-11-13T09:45:22Z</time>
      </trkpt>
      <trkpt lat="47.95546" lon="1.96974">
        <ele>119.337</ele>
        <time>2011-11-13T09:45:30Z</time>
      </trkpt>
      <trkpt lat="47.9553" lon="1.96941">
        <ele>120.227</ele>
        <time>2011-11-13T09:45:36Z</time>
      </trkpt>
      <trkpt lat="47.95502" lon="1.96882">
        <ele>120.167</ele>
        <time>2011-11-13T09:45:47Z</time>
      </trkpt>
      <trkpt lat="47.955" lon="1.96876">
        <ele>120.173</ele>
        <time>2011-11-13T09:45:48Z</time>
      </trkpt>
      <trkpt lat="47.9548" lon="1.96835">
        <ele>121.261</ele>
        <time>2011-11-13T09:45:55Z</time>
      </trkpt>
      <trkpt lat="47.95456" lon="1.96782">
        <ele>122.323</ele>
        <time>2011-11-13T09:46:04Z</time>
      </trkpt>
      <trkpt lat="47.95413" lon="1.9669">
        <ele>124.367</ele>
        <time>2011-11-13T09:46:19Z</time>
      </trkpt>
      <trkpt lat="47.95375" lon="1.96606">
        <ele>123.939</ele>
        <time>2011-11-13T09:46:32Z</time>
      </trkpt>
      <trkpt lat="47.95331" lon="1.9651">
        <ele>122.626</ele>
        <time>2011-11-13T09:46:44Z</time>
      </trkpt>
      <trkpt lat="47.95273" lon="1.96384">
        <ele>120.983</ele>
        <time>2011-11-13T09:46:58Z</time>
      </trkpt>
      <trkpt lat="47.95207" lon="1.96241">
        <ele>118.174</ele>
        <time>2011-11-13T09:47:13Z</time>
      </trkpt>
      <trkpt lat="47.9514" lon="1.96096">
        <ele>117.123</ele>
        <time>2011-11-13T09:47:28Z</time>
      </trkpt>
      <trkpt lat="47.95122" lon="1.9597">
        <ele>117.984</ele>
        <time>2011-11-13T09:47:40Z</time>
      </trkpt>
      <trkpt lat="47.95118" lon="1.95932">
        <ele>117.761</ele>
        <time>2011-11-13T09:47:44Z</time>
      </trkpt>
      <trkpt lat="47.95101" lon="1.95919">
        <ele>117.3</ele>
        <time>2011-11-13T09:47:50Z</time>
      </trkpt>
      <trkpt lat="47.95081" lon="1.95953">
        <ele>116.414</ele>
        <time>2011-11-13T09:48:01Z</time>
      </trkpt>
      <trkpt lat="47.95079" lon="1.95955">
        <ele>116.762</ele>
        <time>2011-11-13T09:48:04Z</time>
      </trkpt>
      <trkpt lat="47.95087" lon="1.95942">
        <ele>116.602</ele>
        <time>2011-11-13T09:48:11Z</time>
      </trkpt>
      <trkpt lat="47.95082" lon="1.95923">
        <ele>116.438</ele>
        <time>2011-11-13T09:48:18Z</time>
      </trkpt>
      <trkpt lat="47.9502" lon="1.95889">
        <ele>116.573</ele>
        <time>2011-11-13T09:48:34Z</time>
      </trkpt>
      <trkpt lat="47.94958" lon="1.95857">
        <ele>115.451</ele>
        <time>2011-11-13T09:48:49Z</time>
      </trkpt>
      <trkpt lat="47.94953" lon="1.95854">
        <ele>115.451</ele>
        <time>2011-11-13T09:48:50Z</time>
      </trkpt>
      <trkpt lat="47.94904" lon="1.95829">
        <ele>114.563</ele>
        <time>2011-11-13T09:49:01Z</time>
      </trkpt>
      <trkpt lat="47.9486" lon="1.95807">
        <ele>114.752</ele>
        <time>2011-11-13T09:49:10Z</time>
      </trkpt>
      <trkpt lat="47.94855" lon="1.95804">
        <ele>114.751</ele>
        <time>2011-11-13T09:49:11Z</time>
      </trkpt>
      <trkpt lat="47.94826" lon="1.95788">
        <ele>114.833</ele>
        <time>2011-11-13T09:49:17Z</time>
      </trkpt>
      <trkpt lat="47.94789" lon="1.95769">
        <ele>114.968</ele>
        <time>2011-11-13T09:49:26Z</time>
      </trkpt>
      <trkpt lat="47.94741" lon="1.95749">
        <ele>115.101</ele>
        <time>2011-11-13T09:49:38Z</time>
      </trkpt>
      <trkpt lat="47.94729" lon="1.95742">
        <ele>115.19</ele>
        <time>2011-11-13T09:49:41Z</time>
      </trkpt>
      <trkpt lat="47.94685" lon="1.95717">
        <ele>116.177</ele>
        <time>2011-11-13T09:49:53Z</time>
      </trkpt>
      <trkpt lat="47.94681" lon="1.95715">
        <ele>116.514</ele>
        <time>2011-11-13T09:49:59Z</time>
      </trkpt>
      <trkpt lat="47.94645" lon="1.95694">
        <ele>117.002</ele>
        <time>2011-11-13T09:50:12Z</time>
      </trkpt>
      <trkpt lat="47.9461" lon="1.95661">
        <ele>118.022</ele>
        <time>2011-11-13T09:50:22Z</time>
      </trkpt>
      <trkpt lat="47.94588" lon="1.95638">
        <ele>117.482</ele>
        <time>2011-11-13T09:50:29Z</time>
      </trkpt>
      <trkpt lat="47.94546" lon="1.95629">
        <ele>118.12</ele>
        <time>2011-11-13T09:50:40Z</time>
      </trkpt>
      <trkpt lat="47.94528" lon="1.95632">
        <ele>116.431</ele>
        <time>2011-11-13T09:50:44Z</time>
      </trkpt>
      <trkpt lat="47.94484" lon="1.95629">
        <ele>117.921</ele>
        <time>2011-11-13T10:18:39Z</time>
      </trkpt>
      <trkpt lat="47.945" lon="1.95577">
        <ele>117.326</ele>
        <time>2011-11-13T10:18:48Z</time>
      </trkpt>
      <trkpt lat="47.94489" lon="1.95515">
        <ele>118.489</ele>
        <time>2011-11-13T10:18:59Z</time>
      </trkpt>
      <trkpt lat="47.94481" lon="1.95493">
        <ele>119.707</ele>
        <time>2011-11-13T10:19:03Z</time>
      </trkpt>
      <trkpt lat="47.94477" lon="1.95467">
        <ele>120.99</ele>
        <time>2011-11-13T10:19:06Z</time>
      </trkpt>
      <trkpt lat="47.94461" lon="1.95444">
        <ele>121.566</ele>
        <time>2011-11-13T10:19:10Z</time>
      </trkpt>
      <trkpt lat="47.94457" lon="1.95411">
        <ele>121.438</ele>
        <time>2011-11-13T10:19:15Z</time>
      </trkpt>
      <trkpt lat="47.94466" lon="1.95369">
        <ele>121.697</ele>
        <time>2011-11-13T10:19:21Z</time>
      </trkpt>
      <trkpt lat="47.94479" lon="1.9533">
        <ele>121.317</ele>
        <time>2011-11-13T10:19:26Z</time>
      </trkpt>
      <trkpt lat="47.94488" lon="1.95309">
        <ele>121.692</ele>
        <time>2011-11-13T10:19:29Z</time>
      </trkpt>
      <trkpt lat="47.94501" lon="1.95277">
        <ele>122.363</ele>
        <time>2011-11-13T10:19:34Z</time>
      </trkpt>
      <trkpt lat="47.94523" lon="1.95205">
        <ele>122.632</ele>
        <time>2011-11-13T10:19:44Z</time>
      </trkpt>
      <trkpt lat="47.94543" lon="1.95168">
        <ele>122.954</ele>
        <time>2011-11-13T10:19:50Z</time>
      </trkpt>
      <trkpt lat="47.9455" lon="1.95158">
        <ele>122.763</ele>
        <time>2011-11-13T10:19:52Z</time>
      </trkpt>
      <trkpt lat="47.94565" lon="1.95125">
        <ele>123.115</ele>
        <time>2011-11-13T10:19:57Z</time>
      </trkpt>
      <trkpt lat="47.94596" lon="1.951">
        <ele>123.467</ele>
        <time>2011-11-13T10:20:04Z</time>
      </trkpt>
      <trkpt lat="47.9462" lon="1.95082">
        <ele>123.754</ele>
        <time>2011-11-13T10:20:11Z</time>
      </trkpt>
      <trkpt lat="47.94624" lon="1.9507">
        <ele>123.06</ele>
        <time>2011-11-13T10:20:16Z</time>
      </trkpt>
      <trkpt lat="47.94614" lon="1.95035">
        <ele>124.093</ele>
        <time>2011-11-13T10:20:31Z</time>
      </trkpt>
      <trkpt lat="47.94614" lon="1.95033">
        <ele>124.162</ele>
        <time>2011-11-13T10:20:32Z</time>
      </trkpt>
      <trkpt lat="47.94607" lon="1.94993">
        <ele>123.69</ele>
        <time>2011-11-13T10:20:47Z</time>
      </trkpt>
      <trkpt lat="47.946" lon="1.94958">
        <ele>123.39</ele>
        <time>2011-11-13T10:21:01Z</time>
      </trkpt>
      <trkpt lat="47.94593" lon="1.94926">
        <ele>123.439</ele>
        <time>2011-11-13T10:21:16Z</time>
      </trkpt>
      <trkpt lat="47.94578" lon="1.94875">
        <ele>124.352</ele>
        <time>2011-11-13T10:21:36Z</time>
      </trkpt>
      <trkpt lat="47.94575" lon="1.94861">
        <ele>124.358</ele>
        <time>2011-11-13T10:21:41Z</time>
      </trkpt>
      <trkpt lat="47.94574" lon="1.9485">
        <ele>124.354</ele>
        <time>2011-11-13T10:21:46Z</time>
      </trkpt>
      <trkpt lat="47.94572" lon="1.94847">
        <ele>124.201</ele>
        <time>2011-11-13T10:21:48Z</time>
      </trkpt>
      <trkpt lat="47.94572" lon="1.94836">
        <ele>124.505</ele>
        <time>2011-11-13T10:22:09Z</time>
      </trkpt>
      <trkpt lat="47.94572" lon="1.94836">
        <ele>124.825</ele>
        <time>2011-11-13T10:22:16Z</time>
      </trkpt>
      <trkpt lat="47.94572" lon="1.94832">
        <ele>124.663</ele>
        <time>2011-11-13T10:22:32Z</time>
      </trkpt>
      <trkpt lat="47.9458" lon="1.94832">
        <ele>124.848</ele>
        <time>2011-11-13T10:22:36Z</time>
      </trkpt>
      <trkpt lat="47.94619" lon="1.94874">
        <ele>124.679</ele>
        <time>2011-11-13T10:22:47Z</time>
      </trkpt>
      <trkpt lat="47.94697" lon="1.94993">
        <ele>121.993</ele>
        <time>2011-11-13T10:23:06Z</time>
      </trkpt>
      <trkpt lat="47.94797" lon="1.95134">
        <ele>119.309</ele>
        <time>2011-11-13T10:23:24Z</time>
      </trkpt>
      <trkpt lat="47.94888" lon="1.95206">
        <ele>118.97</ele>
        <time>2011-11-13T10:23:39Z</time>
      </trkpt>
      <trkpt lat="47.95004" lon="1.95236">
        <ele>122.728</ele>
        <time>2011-11-13T10:23:57Z</time>
      </trkpt>
      <trkpt lat="47.9512" lon="1.95264">
        <ele>126.337</ele>
        <time>2011-11-13T10:24:16Z</time>
      </trkpt>
      <trkpt lat="47.95126" lon="1.95265">
        <ele>126.337</ele>
        <time>2011-11-13T10:24:17Z</time>
      </trkpt>
      <trkpt lat="47.95264" lon="1.95306">
        <ele>125.236</ele>
        <time>2011-11-13T10:24:38Z</time>
      </trkpt>
      <trkpt lat="47.95454" lon="1.9537">
        <ele>124.618</ele>
        <time>2011-11-13T10:25:05Z</time>
      </trkpt>
      <trkpt lat="47.95613" lon="1.95426">
        <ele>125.8</ele>
        <time>2011-11-13T10:25:31Z</time>
      </trkpt>
      <trkpt lat="47.95736" lon="1.95471">
        <ele>126.219</ele>
        <time>2011-11-13T10:25:52Z</time>
      </trkpt>
      <trkpt lat="47.9587" lon="1.95519">
        <ele>128.734</ele>
        <time>2011-11-13T10:26:14Z</time>
      </trkpt>
      <trkpt lat="47.95978" lon="1.95553">
        <ele>126.862</ele>
        <time>2011-11-13T10:26:30Z</time>
      </trkpt>
      <trkpt lat="47.96212" lon="1.95629">
        <ele>127.963</ele>
        <time>2011-11-13T10:27:02Z</time>
      </trkpt>
      <trkpt lat="47.9634" lon="1.95674">
        <ele>131.078</ele>
        <time>2011-11-13T10:27:23Z</time>
      </trkpt>
      <trkpt lat="47.96377" lon="1.95687">
        <ele>131.564</ele>
        <time>2011-11-13T10:27:35Z</time>
      </trkpt>
      <trkpt lat="47.96377" lon="1.95687">
        <ele>131.393</ele>
        <time>2011-11-13T10:27:51Z</time>
      </trkpt>
      <trkpt lat="47.96403" lon="1.95697">
        <ele>132.505</ele>
        <time>2011-11-13T10:28:00Z</time>
      </trkpt>
      <trkpt lat="47.96437" lon="1.95709">
        <ele>131.969</ele>
        <time>2011-11-13T10:28:09Z</time>
      </trkpt>
      <trkpt lat="47.96453" lon="1.95686">
        <ele>132.048</ele>
        <time>2011-11-13T10:28:14Z</time>
      </trkpt>
      <trkpt lat="47.96505" lon="1.95544">
        <ele>132.998</ele>
        <time>2011-11-13T10:28:35Z</time>
      </trkpt>
      <trkpt lat="47.96577" lon="1.95384">
        <ele>133.709</ele>
        <time>2011-11-13T10:28:59Z</time>
      </trkpt>
      <trkpt lat="47.96645" lon="1.95275">
        <ele>133.249</ele>
        <time>2011-11-13T10:29:16Z</time>
      </trkpt>
      <trkpt lat="47.96761" lon="1.95084">
        <ele>132.952</ele>
        <time>2011-11-13T10:29:44Z</time>
      </trkpt>
      <trkpt lat="47.96804" lon="1.95013">
        <ele>132.853</ele>
        <time>2011-11-13T10:29:55Z</time>
      </trkpt>
      <trkpt lat="47.96802" lon="1.94968">
        <ele>132.944</ele>
        <time>2011-11-13T10:30:01Z</time>
      </trkpt>
      <trkpt lat="47.96757" lon="1.94885">
        <ele>133.69</ele>
        <time>2011-11-13T10:30:13Z</time>
      </trkpt>
      <trkpt lat="47.96748" lon="1.94862">
        <ele>133.325</ele>
        <time>2011-11-13T10:30:16Z</time>
      </trkpt>
      <trkpt lat="47.96734" lon="1.94728">
        <ele>133.584</ele>
        <time>2011-11-13T10:30:31Z</time>
      </trkpt>
      <trkpt lat="47.96731" lon="1.94566">
        <ele>132.948</ele>
        <time>2011-11-13T10:30:48Z</time>
      </trkpt>
      <trkpt lat="47.96732" lon="1.94437">
        <ele>132.64</ele>
        <time>2011-11-13T10:31:04Z</time>
      </trkpt>
      <trkpt lat="47.96741" lon="1.94377">
        <ele>132.021</ele>
        <time>2011-11-13T10:31:14Z</time>
      </trkpt>
      <trkpt lat="47.96756" lon="1.94268">
        <ele>131.854</ele>
        <time>2011-11-13T10:31:27Z</time>
      </trkpt>
      <trkpt lat="47.96761" lon="1.94237">
        <ele>131.702</ele>
        <time>2011-11-13T10:31:30Z</time>
      </trkpt>
      <trkpt lat="47.9679" lon="1.9403">
        <ele>130.421</ele>
        <time>2011-11-13T10:31:50Z</time>
      </trkpt>
      <trkpt lat="47.96816" lon="1.93851">
        <ele>129.817</ele>
        <time>2011-11-13T10:32:08Z</time>
      </trkpt>
      <trkpt lat="47.96841" lon="1.93674">
        <ele>128.378</ele>
        <time>2011-11-13T10:32:25Z</time>
      </trkpt>
      <trkpt lat="47.96875" lon="1.93427">
        <ele>128.156</ele>
        <time>2011-11-13T10:32:47Z</time>
      </trkpt>
      <trkpt lat="47.96884" lon="1.93352">
        <ele>128.301</ele>
        <time>2011-11-13T10:32:54Z</time>
      </trkpt>
      <trkpt lat="47.96895" lon="1.9328">
        <ele>128.01</ele>
        <time>2011-11-13T10:33:01Z</time>
      </trkpt>
      <trkpt lat="47.96903" lon="1.93218">
        <ele>128.468</ele>
        <time>2011-11-13T10:33:07Z</time>
      </trkpt>
      <trkpt lat="47.96909" lon="1.93178">
        <ele>128.116</ele>
        <time>2011-11-13T10:33:11Z</time>
      </trkpt>
      <trkpt lat="47.96923" lon="1.93084">
        <ele>128.852</ele>
        <time>2011-11-13T10:33:21Z</time>
      </trkpt>
      <trkpt lat="47.96933" lon="1.93009">
        <ele>128.751</ele>
        <time>2011-11-13T10:33:31Z</time>
      </trkpt>
      <trkpt lat="47.96939" lon="1.92964">
        <ele>129.241</ele>
        <time>2011-11-13T10:33:41Z</time>
      </trkpt>
      <trkpt lat="47.96943" lon="1.92936">
        <ele>130.447</ele>
        <time>2011-11-13T10:33:54Z</time>
      </trkpt>
      <trkpt lat="47.96943" lon="1.92936">
        <ele>130.22</ele>
        <time>2011-11-13T10:34:09Z</time>
      </trkpt>
      <trkpt lat="47.96951" lon="1.92878">
        <ele>129.083</ele>
        <time>2011-11-13T10:34:23Z</time>
      </trkpt>
      <trkpt lat="47.96954" lon="1.92848">
        <ele>128.756</ele>
        <time>2011-11-13T10:34:30Z</time>
      </trkpt>
      <trkpt lat="47.9696" lon="1.92789">
        <ele>128.781</ele>
        <time>2011-11-13T10:34:39Z</time>
      </trkpt>
      <trkpt lat="47.96964" lon="1.92745">
        <ele>128.416</ele>
        <time>2011-11-13T10:34:45Z</time>
      </trkpt>
      <trkpt lat="47.96976" lon="1.92642">
        <ele>128.167</ele>
        <time>2011-11-13T10:34:59Z</time>
      </trkpt>
      <trkpt lat="47.96979" lon="1.9262">
        <ele>128.258</ele>
        <time>2011-11-13T10:35:02Z</time>
      </trkpt>
      <trkpt lat="47.96982" lon="1.92598">
        <ele>127.915</ele>
        <time>2011-11-13T10:35:05Z</time>
      </trkpt>
      <trkpt lat="47.96992" lon="1.92513">
        <ele>128.691</ele>
        <time>2011-11-13T10:35:17Z</time>
      </trkpt>
      <trkpt lat="47.97006" lon="1.92393">
        <ele>127.726</ele>
        <time>2011-11-13T10:35:32Z</time>
      </trkpt>
      <trkpt lat="47.9701" lon="1.92358">
        <ele>127.681</ele>
        <time>2011-11-13T10:35:36Z</time>
      </trkpt>
      <trkpt lat="47.97025" lon="1.9223">
        <ele>126.761</ele>
        <time>2011-11-13T10:35:52Z</time>
      </trkpt>
      <trkpt lat="47.9704" lon="1.92212">
        <ele>126.706</ele>
        <time>2011-11-13T10:35:57Z</time>
      </trkpt>
      <trkpt lat="47.97147" lon="1.92255">
        <ele>128.075</ele>
        <time>2011-11-13T10:36:16Z</time>
      </trkpt>
      <trkpt lat="47.97221" lon="1.92285">
        <ele>127.788</ele>
        <time>2011-11-13T10:36:30Z</time>
      </trkpt>
      <trkpt lat="47.9728" lon="1.92309">
        <ele>126.892</ele>
        <time>2011-11-13T10:36:41Z</time>
      </trkpt>
      <trkpt lat="47.97373" lon="1.92347">
        <ele>126.397</ele>
        <time>2011-11-13T10:36:56Z</time>
      </trkpt>
      <trkpt lat="47.9748" lon="1.92391">
        <ele>126.226</ele>
        <time>2011-11-13T10:37:15Z</time>
      </trkpt>
      <trkpt lat="47.97565" lon="1.92425">
        <ele>125.153</ele>
        <time>2011-11-13T10:37:30Z</time>
      </trkpt>
      <trkpt lat="47.97637" lon="1.92455">
        <ele>125.632</ele>
        <time>2011-11-13T10:37:43Z</time>
      </trkpt>
      <trkpt lat="47.9766" lon="1.92464">
        <ele>125.653</ele>
        <time>2011-11-13T10:37:47Z</time>
      </trkpt>
      <trkpt lat="47.9772" lon="1.92488">
        <ele>125.839</ele>
        <time>2011-11-13T10:38:00Z</time>
      </trkpt>
      <trkpt lat="47.97768" lon="1.92507">
        <ele>125.681</ele>
        <time>2011-11-13T10:38:09Z</time>
      </trkpt>
      <trkpt lat="47.97835" lon="1.92533">
        <ele>126.256</ele>
        <time>2011-11-13T10:38:23Z</time>
      </trkpt>
      <trkpt lat="47.97856" lon="1.92541">
        <ele>126.317</ele>
        <time>2011-11-13T10:38:27Z</time>
      </trkpt>
      <trkpt lat="47.97953" lon="1.92581">
        <ele>127.696</ele>
        <time>2011-11-13T10:38:47Z</time>
      </trkpt>
      <trkpt lat="47.98043" lon="1.92619">
        <ele>127.675</ele>
        <time>2011-11-13T10:39:03Z</time>
      </trkpt>
      <trkpt lat="47.98107" lon="1.92645">
        <ele>126.295</ele>
        <time>2011-11-13T10:39:15Z</time>
      </trkpt>
      <trkpt lat="47.98192" lon="1.92681">
        <ele>125.632</ele>
        <time>2011-11-13T10:39:30Z</time>
      </trkpt>
      <trkpt lat="47.98268" lon="1.92714">
        <ele>124.892</ele>
        <time>2011-11-13T10:39:44Z</time>
      </trkpt>
      <trkpt lat="47.98333" lon="1.92742">
        <ele>124.586</ele>
        <time>2011-11-13T10:39:55Z</time>
      </trkpt>
      <trkpt lat="47.98365" lon="1.92755">
        <ele>124.779</ele>
        <time>2011-11-13T10:40:02Z</time>
      </trkpt>
      <trkpt lat="47.98397" lon="1.92767">
        <ele>124.766</ele>
        <time>2011-11-13T10:40:10Z</time>
      </trkpt>
      <trkpt lat="47.98427" lon="1.92762">
        <ele>124.304</ele>
        <time>2011-11-13T10:40:18Z</time>
      </trkpt>
      <trkpt lat="47.98423" lon="1.92754">
        <ele>124.334</ele>
        <time>2011-11-13T10:40:21Z</time>
      </trkpt>
      <trkpt lat="47.98406" lon="1.9275">
        <ele>124.044</ele>
        <time>2011-11-13T10:40:27Z</time>
      </trkpt>
      <trkpt lat="47.98396" lon="1.92721">
        <ele>123.75</ele>
        <time>2011-11-13T10:40:40Z</time>
      </trkpt>
      <trkpt lat="47.98384" lon="1.92688">
        <ele>123.914</ele>
        <time>2011-11-13T10:40:47Z</time>
      </trkpt>
      <trkpt lat="47.98378" lon="1.92672">
        <ele>123.799</ele>
        <time>2011-11-13T10:40:50Z</time>
      </trkpt>
      <trkpt lat="47.98337" lon="1.92562">
        <ele>124.341</ele>
        <time>2011-11-13T10:41:07Z</time>
      </trkpt>
      <trkpt lat="47.98325" lon="1.9253">
        <ele>123.896</ele>
        <time>2011-11-13T10:41:11Z</time>
      </trkpt>
      <trkpt lat="47.98269" lon="1.92378">
        <ele>124.128</ele>
        <time>2011-11-13T10:41:29Z</time>
      </trkpt>
      <trkpt lat="47.98263" lon="1.92359">
        <ele>124.658</ele>
        <time>2011-11-13T10:41:31Z</time>
      </trkpt>
      <trkpt lat="47.98238" lon="1.92293">
        <ele>124.543</ele>
        <time>2011-11-13T10:41:39Z</time>
      </trkpt>
      <trkpt lat="47.98236" lon="1.92285">
        <ele>124.526</ele>
        <time>2011-11-13T10:41:40Z</time>
      </trkpt>
      <trkpt lat="47.98213" lon="1.92223">
        <ele>124.85</ele>
        <time>2011-11-13T10:41:48Z</time>
      </trkpt>
      <trkpt lat="47.98207" lon="1.92207">
        <ele>125.008</ele>
        <time>2011-11-13T10:41:50Z</time>
      </trkpt>
      <trkpt lat="47.98198" lon="1.92181">
        <ele>125.077</ele>
        <time>2011-11-13T10:41:54Z</time>
      </trkpt>
      <trkpt lat="47.98171" lon="1.92108">
        <ele>124.807</ele>
        <time>2011-11-13T10:42:03Z</time>
      </trkpt>
      <trkpt lat="47.98139" lon="1.92019">
        <ele>125.391</ele>
        <time>2011-11-13T10:42:14Z</time>
      </trkpt>
      <trkpt lat="47.98115" lon="1.91954">
        <ele>125.151</ele>
        <time>2011-11-13T10:42:22Z</time>
      </trkpt>
      <trkpt lat="47.98085" lon="1.91872">
        <ele>125.32</ele>
        <time>2011-11-13T10:42:32Z</time>
      </trkpt>
      <trkpt lat="47.98061" lon="1.91807">
        <ele>125.066</ele>
        <time>2011-11-13T10:42:40Z</time>
      </trkpt>
      <trkpt lat="47.98034" lon="1.91731">
        <ele>125.288</ele>
        <time>2011-11-13T10:42:50Z</time>
      </trkpt>
      <trkpt lat="47.98004" lon="1.91656">
        <ele>125.724</ele>
        <time>2011-11-13T10:42:59Z</time>
      </trkpt>
      <trkpt lat="47.9799" lon="1.91617">
        <ele>126.126</ele>
        <time>2011-11-13T10:43:04Z</time>
      </trkpt>
      <trkpt lat="47.97952" lon="1.9151">
        <ele>127.401</ele>
        <time>2011-11-13T10:43:18Z</time>
      </trkpt>
      <trkpt lat="47.9789" lon="1.91338">
        <ele>128.389</ele>
        <time>2011-11-13T10:43:40Z</time>
      </trkpt>
      <trkpt lat="47.9786" lon="1.91262">
        <ele>128.361</ele>
        <time>2011-11-13T10:43:50Z</time>
      </trkpt>
      <trkpt lat="47.97851" lon="1.91238">
        <ele>128.844</ele>
        <time>2011-11-13T10:43:53Z</time>
      </trkpt>
      <trkpt lat="47.97799" lon="1.91097">
        <ele>129.199</ele>
        <time>2011-11-13T10:44:11Z</time>
      </trkpt>
      <trkpt lat="47.97784" lon="1.91055">
        <ele>129.147</ele>
        <time>2011-11-13T10:44:16Z</time>
      </trkpt>
      <trkpt lat="47.97743" lon="1.90944">
        <ele>129.5</ele>
        <time>2011-11-13T10:44:29Z</time>
      </trkpt>
      <trkpt lat="47.97734" lon="1.90919">
        <ele>129.394</ele>
        <time>2011-11-13T10:44:32Z</time>
      </trkpt>
      <trkpt lat="47.9768" lon="1.90776">
        <ele>128.089</ele>
        <time>2011-11-13T10:44:48Z</time>
      </trkpt>
      <trkpt lat="47.97626" lon="1.90627">
        <ele>128.749</ele>
        <time>2011-11-13T10:45:04Z</time>
      </trkpt>
      <trkpt lat="47.97555" lon="1.90435">
        <ele>125.363</ele>
        <time>2011-11-13T10:45:24Z</time>
      </trkpt>
      <trkpt lat="47.97488" lon="1.90254">
        <ele>124.367</ele>
        <time>2011-11-13T10:45:44Z</time>
      </trkpt>
      <trkpt lat="47.97401" lon="1.90022">
        <ele>124.545</ele>
        <time>2011-11-13T10:46:09Z</time>
      </trkpt>
      <trkpt lat="47.97305" lon="1.89767">
        <ele>123.609</ele>
        <time>2011-11-13T10:46:36Z</time>
      </trkpt>
      <trkpt lat="47.97208" lon="1.89513">
        <ele>123.724</ele>
        <time>2011-11-13T10:47:02Z</time>
      </trkpt>
      <trkpt lat="47.9712" lon="1.89274">
        <ele>123.966</ele>
        <time>2011-11-13T10:47:27Z</time>
      </trkpt>
      <trkpt lat="47.97025" lon="1.89026">
        <ele>124.701</ele>
        <time>2011-11-13T10:47:53Z</time>
      </trkpt>
      <trkpt lat="47.96982" lon="1.88909">
        <ele>124.349</ele>
        <time>2011-11-13T10:48:09Z</time>
      </trkpt>
      <trkpt lat="47.96961" lon="1.88848">
        <ele>124.183</ele>
        <time>2011-11-13T10:48:23Z</time>
      </trkpt>
      <trkpt lat="47.9696" lon="1.88835">
        <ele>124.645</ele>
        <time>2011-11-13T10:48:34Z</time>
      </trkpt>
      <trkpt lat="47.9696" lon="1.88835">
        <ele>124.215</ele>
        <time>2011-11-13T10:49:07Z</time>
      </trkpt>
      <trkpt lat="47.9696" lon="1.88835">
        <ele>123.807</ele>
        <time>2011-11-13T10:49:42Z</time>
      </trkpt>
      <trkpt lat="47.9696" lon="1.88835">
        <ele>123.996</ele>
        <time>2011-11-13T10:50:37Z</time>
      </trkpt>
      <trkpt lat="47.96952" lon="1.88848">
        <ele>123.41</ele>
        <time>2011-11-13T10:50:40Z</time>
      </trkpt>
      <trkpt lat="47.96938" lon="1.8885">
        <ele>123.444</ele>
        <time>2011-11-13T10:50:49Z</time>
      </trkpt>
      <trkpt lat="47.96935" lon="1.8885">
        <ele>123.44</ele>
        <time>2011-11-13T10:50:50Z</time>
      </trkpt>
      <trkpt lat="47.96885" lon="1.88864">
        <ele>123.779</ele>
        <time>2011-11-13T10:51:00Z</time>
      </trkpt>
      <trkpt lat="47.96837" lon="1.88877">
        <ele>123.644</ele>
        <time>2011-11-13T10:51:08Z</time>
      </trkpt>
      <trkpt lat="47.96831" lon="1.88878">
        <ele>123.643</ele>
        <time>2011-11-13T10:51:09Z</time>
      </trkpt>
      <trkpt lat="47.96796" lon="1.88888">
        <ele>122.584</ele>
        <time>2011-11-13T10:51:16Z</time>
      </trkpt>
      <trkpt lat="47.96766" lon="1.88896">
        <ele>122.462</ele>
        <time>2011-11-13T10:51:20Z</time>
      </trkpt>
      <trkpt lat="47.96746" lon="1.88902">
        <ele>121.589</ele>
        <time>2011-11-13T10:51:25Z</time>
      </trkpt>
      <trkpt lat="47.96722" lon="1.88909">
        <ele>122.084</ele>
        <time>2011-11-13T10:51:30Z</time>
      </trkpt>
      <trkpt lat="47.96682" lon="1.8892">
        <ele>123.605</ele>
        <time>2011-11-13T10:51:40Z</time>
      </trkpt>
      <trkpt lat="47.96631" lon="1.88935">
        <ele>124.41</ele>
        <time>2011-11-13T10:51:47Z</time>
      </trkpt>
      <trkpt lat="47.96592" lon="1.88946">
        <ele>124.547</ele>
        <time>2011-11-13T10:51:53Z</time>
      </trkpt>
      <trkpt lat="47.96577" lon="1.8895">
        <ele>124.782</ele>
        <time>2011-11-13T10:52:00Z</time>
      </trkpt>
      <trkpt lat="47.96548" lon="1.8899">
        <ele>125.023</ele>
        <time>2011-11-13T10:52:05Z</time>
      </trkpt>
      <trkpt lat="47.96506" lon="1.89039">
        <ele>125.071</ele>
        <time>2011-11-13T10:52:15Z</time>
      </trkpt>
      <trkpt lat="47.96471" lon="1.89078">
        <ele>124.762</ele>
        <time>2011-11-13T10:52:24Z</time>
      </trkpt>
      <trkpt lat="47.9645" lon="1.89102">
        <ele>124.726</ele>
        <time>2011-11-13T10:52:29Z</time>
      </trkpt>
      <trkpt lat="47.9641" lon="1.89148">
        <ele>124.524</ele>
        <time>2011-11-13T10:52:39Z</time>
      </trkpt>
      <trkpt lat="47.96366" lon="1.89199">
        <ele>124.864</ele>
        <time>2011-11-13T10:52:51Z</time>
      </trkpt>
      <trkpt lat="47.96349" lon="1.89219">
        <ele>124.616</ele>
        <time>2011-11-13T10:53:08Z</time>
      </trkpt>
      <trkpt lat="47.9631" lon="1.89264">
        <ele>125.1</ele>
        <time>2011-11-13T10:53:20Z</time>
      </trkpt>
      <trkpt lat="47.96303" lon="1.89273">
        <ele>125.381</ele>
        <time>2011-11-13T10:53:22Z</time>
      </trkpt>
      <trkpt lat="47.96266" lon="1.89314">
        <ele>125.371</ele>
        <time>2011-11-13T10:53:31Z</time>
      </trkpt>
      <trkpt lat="47.96253" lon="1.8933">
        <ele>124.935</ele>
        <time>2011-11-13T10:53:36Z</time>
      </trkpt>
      <trkpt lat="47.96223" lon="1.89261">
        <ele>125.324</ele>
        <time>2011-11-13T10:53:46Z</time>
      </trkpt>
      <trkpt lat="47.96223" lon="1.89261">
        <ele>125.215</ele>
        <time>2011-11-13T10:53:53Z</time>
      </trkpt>
      <trkpt lat="47.96174" lon="1.89216">
        <ele>125.256</ele>
        <time>2011-11-13T10:53:57Z</time>
      </trkpt>
      <trkpt lat="47.96139" lon="1.89304">
        <ele>125.953</ele>
        <time>2011-11-13T10:54:06Z</time>
      </trkpt>
      <trkpt lat="47.96099" lon="1.89312">
        <ele>125.876</ele>
        <time>2011-11-13T10:54:15Z</time>
      </trkpt>
      <trkpt lat="47.96082" lon="1.89324">
        <ele>126.22</ele>
        <time>2011-11-13T10:54:19Z</time>
      </trkpt>
      <trkpt lat="47.96061" lon="1.89339">
        <ele>125.845</ele>
        <time>2011-11-13T10:54:24Z</time>
      </trkpt>
      <trkpt lat="47.96006" lon="1.89341">
        <ele>126.611</ele>
        <time>2011-11-13T10:54:35Z</time>
      </trkpt>
      <trkpt lat="47.95946" lon="1.89352">
        <ele>127.232</ele>
        <time>2011-11-13T10:54:51Z</time>
      </trkpt>
      <trkpt lat="47.95942" lon="1.89353">
        <ele>126.812</ele>
        <time>2011-11-13T10:54:54Z</time>
      </trkpt>
      <trkpt lat="47.95919" lon="1.89338">
        <ele>127.111</ele>
        <time>2011-11-13T10:55:01Z</time>
      </trkpt>
      <trkpt lat="47.95925" lon="1.8933">
        <ele>127.312</ele>
        <time>2011-11-13T10:55:04Z</time>
      </trkpt>
      <trkpt lat="47.95917" lon="1.89274">
        <ele>127.291</ele>
        <time>2011-11-13T10:55:11Z</time>
      </trkpt>
      <trkpt lat="47.95911" lon="1.89247">
        <ele>126.806</ele>
        <time>2011-11-13T10:55:15Z</time>
      </trkpt>
      <trkpt lat="47.95885" lon="1.89218">
        <ele>126.918</ele>
        <time>2011-11-13T10:55:22Z</time>
      </trkpt>
      <trkpt lat="47.95854" lon="1.89232">
        <ele>127.588</ele>
        <time>2011-11-13T10:55:28Z</time>
      </trkpt>
      <trkpt lat="47.95838" lon="1.89271">
        <ele>127.565</ele>
        <time>2011-11-13T10:55:35Z</time>
      </trkpt>
      <trkpt lat="47.95823" lon="1.89299">
        <ele>127.511</ele>
        <time>2011-11-13T10:55:41Z</time>
      </trkpt>
      <trkpt lat="47.95805" lon="1.89305">
        <ele>128.065</ele>
        <time>2011-11-13T10:55:45Z</time>
      </trkpt>
      <trkpt lat="47.95791" lon="1.89293">
        <ele>127.73</ele>
        <time>2011-11-13T10:55:49Z</time>
      </trkpt>
      <trkpt lat="47.95759" lon="1.89297">
        <ele>128.612</ele>
        <time>2011-11-13T10:55:56Z</time>
      </trkpt>
      <trkpt lat="47.95747" lon="1.893">
        <ele>128.975</ele>
        <time>2011-11-13T10:55:59Z</time>
      </trkpt>
      <trkpt lat="47.95733" lon="1.89292">
        <ele>129.225</ele>
        <time>2011-11-13T10:56:03Z</time>
      </trkpt>
      <trkpt lat="47.95728" lon="1.89166">
        <ele>128.73</ele>
        <time>2011-11-13T10:56:20Z</time>
      </trkpt>
      <trkpt lat="47.95728" lon="1.89084">
        <ele>127.661</ele>
        <time>2011-11-13T10:56:29Z</time>
      </trkpt>
      <trkpt lat="47.95736" lon="1.89042">
        <ele>127.6</ele>
        <time>2011-11-13T10:56:35Z</time>
      </trkpt>
      <trkpt lat="47.95734" lon="1.89014">
        <ele>127.416</ele>
        <time>2011-11-13T10:56:40Z</time>
      </trkpt>
      <trkpt lat="47.95734" lon="1.89014">
        <ele>127.74</ele>
        <time>2011-11-13T10:56:42Z</time>
      </trkpt>
      <trkpt lat="47.95734" lon="1.89014">
        <ele>127.83</ele>
        <time>2011-11-13T10:56:46Z</time>
      </trkpt>
      <trkpt lat="47.95719" lon="1.88958">
        <ele>127.942</ele>
        <time>2011-11-13T10:56:52Z</time>
      </trkpt>
      <trkpt lat="47.95727" lon="1.88884">
        <ele>127.168</ele>
        <time>2011-11-13T10:56:59Z</time>
      </trkpt>
      <trkpt lat="47.95753" lon="1.88839">
        <ele>126.876</ele>
        <time>2011-11-13T10:57:05Z</time>
      </trkpt>
      <trkpt lat="47.95831" lon="1.88766">
        <ele>126.356</ele>
        <time>2011-11-13T10:57:18Z</time>
      </trkpt>
      <trkpt lat="47.95858" lon="1.88716">
        <ele>125.981</ele>
        <time>2011-11-13T10:57:24Z</time>
      </trkpt>
      <trkpt lat="47.95864" lon="1.88696">
        <ele>125.759</ele>
        <time>2011-11-13T10:57:26Z</time>
      </trkpt>
      <trkpt lat="47.95842" lon="1.88567">
        <ele>126.395</ele>
        <time>2011-11-13T10:57:39Z</time>
      </trkpt>
      <trkpt lat="47.9587" lon="1.8838">
        <ele>126.344</ele>
        <time>2011-11-13T10:57:56Z</time>
      </trkpt>
      <trkpt lat="47.95919" lon="1.88204">
        <ele>125.607</ele>
        <time>2011-11-13T10:58:14Z</time>
      </trkpt>
      <trkpt lat="47.95978" lon="1.88101">
        <ele>125.767</ele>
        <time>2011-11-13T10:58:29Z</time>
      </trkpt>
      <trkpt lat="47.96001" lon="1.88067">
        <ele>126.347</ele>
        <time>2011-11-13T10:58:36Z</time>
      </trkpt>
      <trkpt lat="47.96006" lon="1.88033">
        <ele>126.253</ele>
        <time>2011-11-13T10:58:42Z</time>
      </trkpt>
      <trkpt lat="47.96016" lon="1.88005">
        <ele>125.721</ele>
        <time>2011-11-13T10:58:47Z</time>
      </trkpt>
      <trkpt lat="47.96031" lon="1.87929">
        <ele>125.978</ele>
        <time>2011-11-13T10:58:49Z</time>
      </trkpt>
      <trkpt lat="47.96024" lon="1.87972">
        <ele>125.471</ele>
        <time>2011-11-13T10:58:53Z</time>
      </trkpt>
      <trkpt lat="47.95986" lon="1.87897">
        <ele>124.83</ele>
        <time>2011-11-13T10:59:14Z</time>
      </trkpt>
      <trkpt lat="47.95984" lon="1.87696">
        <ele>123.833</ele>
        <time>2011-11-13T10:59:32Z</time>
      </trkpt>
      <trkpt lat="47.95955" lon="1.87539">
        <ele>124.098</ele>
        <time>2011-11-13T10:59:51Z</time>
      </trkpt>
      <trkpt lat="47.95937" lon="1.8748">
        <ele>124.997</ele>
        <time>2011-11-13T11:00:01Z</time>
      </trkpt>
      <trkpt lat="47.95917" lon="1.87462">
        <ele>126.189</ele>
        <time>2011-11-13T11:00:08Z</time>
      </trkpt>
      <trkpt lat="47.95911" lon="1.87453">
        <ele>126.284</ele>
        <time>2011-11-13T11:00:10Z</time>
      </trkpt>
      <trkpt lat="47.95919" lon="1.87449">
        <ele>125.989</ele>
        <time>2011-11-13T11:00:14Z</time>
      </trkpt>
      <trkpt lat="47.95924" lon="1.87442">
        <ele>125.842</ele>
        <time>2011-11-13T11:00:16Z</time>
      </trkpt>
      <trkpt lat="47.95897" lon="1.87274">
        <ele>123.713</ele>
        <time>2011-11-13T11:00:32Z</time>
      </trkpt>
      <trkpt lat="47.95889" lon="1.87133">
        <ele>122.721</ele>
        <time>2011-11-13T11:00:49Z</time>
      </trkpt>
      <trkpt lat="47.95858" lon="1.86987">
        <ele>122.192</ele>
        <time>2011-11-13T11:01:10Z</time>
      </trkpt>
      <trkpt lat="47.95819" lon="1.86834">
        <ele>121.603</ele>
        <time>2011-11-13T11:01:25Z</time>
      </trkpt>
      <trkpt lat="47.95749" lon="1.86736">
        <ele>120.801</ele>
        <time>2011-11-13T11:01:40Z</time>
      </trkpt>
      <trkpt lat="47.95636" lon="1.86617">
        <ele>120.508</ele>
        <time>2011-11-13T11:02:02Z</time>
      </trkpt>
      <trkpt lat="47.95535" lon="1.86499">
        <ele>122.348</ele>
        <time>2011-11-13T11:02:24Z</time>
      </trkpt>
      <trkpt lat="47.95505" lon="1.86331">
        <ele>122.408</ele>
        <time>2011-11-13T11:02:43Z</time>
      </trkpt>
      <trkpt lat="47.9544" lon="1.86174">
        <ele>119.648</ele>
        <time>2011-11-13T11:03:04Z</time>
      </trkpt>
      <trkpt lat="47.95429" lon="1.86148">
        <ele>120.023</ele>
        <time>2011-11-13T11:03:08Z</time>
      </trkpt>
      <trkpt lat="47.95418" lon="1.86122">
        <ele>119.541</ele>
        <time>2011-11-13T11:03:12Z</time>
      </trkpt>
      <trkpt lat="47.95382" lon="1.86031">
        <ele>119.209</ele>
        <time>2011-11-13T11:03:24Z</time>
      </trkpt>
      <trkpt lat="47.95307" lon="1.85883">
        <ele>117.784</ele>
        <time>2011-11-13T11:03:42Z</time>
      </trkpt>
      <trkpt lat="47.95263" lon="1.85826">
        <ele>116.86</ele>
        <time>2011-11-13T11:03:53Z</time>
      </trkpt>
      <trkpt lat="47.95249" lon="1.858">
        <ele>116.943</ele>
        <time>2011-11-13T11:04:03Z</time>
      </trkpt>
      <trkpt lat="47.95245" lon="1.85788">
        <ele>116.892</ele>
        <time>2011-11-13T11:04:05Z</time>
      </trkpt>
      <trkpt lat="47.95244" lon="1.85734">
        <ele>116.818</ele>
        <time>2011-11-13T11:04:10Z</time>
      </trkpt>
      <trkpt lat="47.95302" lon="1.85539">
        <ele>117.859</ele>
        <time>2011-11-13T11:04:31Z</time>
      </trkpt>
      <trkpt lat="47.95341" lon="1.85315">
        <ele>118.77</ele>
        <time>2011-11-13T11:04:52Z</time>
      </trkpt>
      <trkpt lat="47.95348" lon="1.85112">
        <ele>121.567</ele>
        <time>2011-11-13T11:05:11Z</time>
      </trkpt>
      <trkpt lat="47.95348" lon="1.85091">
        <ele>121.803</ele>
        <time>2011-11-13T11:05:13Z</time>
      </trkpt>
      <trkpt lat="47.95347" lon="1.85062">
        <ele>122.772</ele>
        <time>2011-11-13T11:05:16Z</time>
      </trkpt>
      <trkpt lat="47.95327" lon="1.84832">
        <ele>121.246</ele>
        <time>2011-11-13T11:05:36Z</time>
      </trkpt>
      <trkpt lat="47.95295" lon="1.84657">
        <ele>118.226</ele>
        <time>2011-11-13T11:05:49Z</time>
      </trkpt>
      <trkpt lat="47.9524" lon="1.84367">
        <ele>115.712</ele>
        <time>2011-11-13T11:06:12Z</time>
      </trkpt>
      <trkpt lat="47.9524" lon="1.84359">
        <ele>115.705</ele>
        <time>2011-11-13T11:06:13Z</time>
      </trkpt>
      <trkpt lat="47.95243" lon="1.84343">
        <ele>115.982</ele>
        <time>2011-11-13T11:06:17Z</time>
      </trkpt>
      <trkpt lat="47.95248" lon="1.8427">
        <ele>115.521</ele>
        <time>2011-11-13T11:06:25Z</time>
      </trkpt>
      <trkpt lat="47.95227" lon="1.8425">
        <ele>116.334</ele>
        <time>2011-11-13T11:06:29Z</time>
      </trkpt>
      <trkpt lat="47.95197" lon="1.8418">
        <ele>115.682</ele>
        <time>2011-11-13T11:06:38Z</time>
      </trkpt>
      <trkpt lat="47.95154" lon="1.83986">
        <ele>115.614</ele>
        <time>2011-11-13T11:06:56Z</time>
      </trkpt>
      <trkpt lat="47.95106" lon="1.8375">
        <ele>117.947</ele>
        <time>2011-11-13T11:07:17Z</time>
      </trkpt>
      <trkpt lat="47.95102" lon="1.83726">
        <ele>118.03</ele>
        <time>2011-11-13T11:07:19Z</time>
      </trkpt>
      <trkpt lat="47.95087" lon="1.83671">
        <ele>118.574</ele>
        <time>2011-11-13T11:07:25Z</time>
      </trkpt>
      <trkpt lat="47.95009" lon="1.83463">
        <ele>118.238</ele>
        <time>2011-11-13T11:07:46Z</time>
      </trkpt>
      <trkpt lat="47.94887" lon="1.83239">
        <ele>115.58</ele>
        <time>2011-11-13T11:08:08Z</time>
      </trkpt>
      <trkpt lat="47.94845" lon="1.83162">
        <ele>114.628</ele>
        <time>2011-11-13T11:08:16Z</time>
      </trkpt>
      <trkpt lat="47.94848" lon="1.83091">
        <ele>114.757</ele>
        <time>2011-11-13T11:08:23Z</time>
      </trkpt>
      <trkpt lat="47.94854" lon="1.83081">
        <ele>114.686</ele>
        <time>2011-11-13T11:08:26Z</time>
      </trkpt>
      <trkpt lat="47.94888" lon="1.83066">
        <ele>115.105</ele>
        <time>2011-11-13T11:08:29Z</time>
      </trkpt>
      <trkpt lat="47.94908" lon="1.83045">
        <ele>114.986</ele>
        <time>2011-11-13T11:08:35Z</time>
      </trkpt>
      <trkpt lat="47.94871" lon="1.8289">
        <ele>115.329</ele>
        <time>2011-11-13T11:08:50Z</time>
      </trkpt>
      <trkpt lat="47.94836" lon="1.82649">
        <ele>115.319</ele>
        <time>2011-11-13T11:09:11Z</time>
      </trkpt>
      <trkpt lat="47.9479" lon="1.82327">
        <ele>113.479</ele>
        <time>2011-11-13T11:09:37Z</time>
      </trkpt>
      <trkpt lat="47.94789" lon="1.82315">
        <ele>113.817</ele>
        <time>2011-11-13T11:09:38Z</time>
      </trkpt>
      <trkpt lat="47.94792" lon="1.8224">
        <ele>113.549</ele>
        <time>2011-11-13T11:09:44Z</time>
      </trkpt>
      <trkpt lat="47.94811" lon="1.82078">
        <ele>111.981</ele>
        <time>2011-11-13T11:09:57Z</time>
      </trkpt>
      <trkpt lat="47.94776" lon="1.81993">
        <ele>112.844</ele>
        <time>2011-11-13T11:10:06Z</time>
      </trkpt>
      <trkpt lat="47.94721" lon="1.81872">
        <ele>114.079</ele>
        <time>2011-11-13T11:10:20Z</time>
      </trkpt>
      <trkpt lat="47.94709" lon="1.81849">
        <ele>114.417</ele>
        <time>2011-11-13T11:10:23Z</time>
      </trkpt>
      <trkpt lat="47.94675" lon="1.81838">
        <ele>115.286</ele>
        <time>2011-11-13T11:10:29Z</time>
      </trkpt>
      <trkpt lat="47.94565" lon="1.81934">
        <ele>114.908</ele>
        <time>2011-11-13T11:10:48Z</time>
      </trkpt>
      <trkpt lat="47.94538" lon="1.81923">
        <ele>114.322</ele>
        <time>2011-11-13T11:10:53Z</time>
      </trkpt>
      <trkpt lat="47.94443" lon="1.81729">
        <ele>114.173</ele>
        <time>2011-11-13T11:11:16Z</time>
      </trkpt>
      <trkpt lat="47.94374" lon="1.81607">
        <ele>113.984</ele>
        <time>2011-11-13T11:11:33Z</time>
      </trkpt>
      <trkpt lat="47.94346" lon="1.81581">
        <ele>114.008</ele>
        <time>2011-11-13T11:11:38Z</time>
      </trkpt>
      <trkpt lat="47.94323" lon="1.81565">
        <ele>113.077</ele>
        <time>2011-11-13T11:11:44Z</time>
      </trkpt>
      <trkpt lat="47.94277" lon="1.81453">
        <ele>112.525</ele>
        <time>2011-11-13T11:11:58Z</time>
      </trkpt>
      <trkpt lat="47.9427" lon="1.81434">
        <ele>111.895</ele>
        <time>2011-11-13T11:12:01Z</time>
      </trkpt>
      <trkpt lat="47.9423" lon="1.8144">
        <ele>111.177</ele>
        <time>2011-11-13T11:12:06Z</time>
      </trkpt>
      <trkpt lat="47.9419" lon="1.81446">
        <ele>110.992</ele>
        <time>2011-11-13T11:12:13Z</time>
      </trkpt>
      <trkpt lat="47.94214" lon="1.81396">
        <ele>110.857</ele>
        <time>2011-11-13T11:12:25Z</time>
      </trkpt>
    </trkseg>
  </trk>
</gpx>